<?xml version="1.0" encoding="UTF-8" standalone="no" ?>
<gpx xmlns="http://www.topografix.com/GPX/1/1" xmlns:xsi="http://www.w3.org/2001/XMLSchema-instance" xsi:schemaLocation="http://www.topografix.com/GPX/1/1 http://www.topografix.com/GPX/1/1/gpx.xsd" version="1.1" creator="VisuGPX - https://www.visugpx.com">
  <metadata>
    <name>Velaux </name>
    <desc><![CDATA[Petite randonnée ,avec un site celte à ne pas louper.
Suivre le panneau parcours de santé et faire le tour de la grande colline sur la droite.
Attention aux chasseurs car il y a des sangliers
Pas d\'eau sur le chemin]]></desc>
  </metadata>
  <trk>
    <name><![CDATA[2014-01-06 16:23:36]]></name>
    <trkseg>
      <trkpt lat="43.53392" lon="5.27049">
        <ele>18.4</ele>
        <time>2014-01-06T13:25:05Z</time>
      </trkpt>
      <trkpt lat="43.53385" lon="5.27046">
        <ele>18.4</ele>
        <time>2014-01-06T13:25:24Z</time>
      </trkpt>
      <trkpt lat="43.53382" lon="5.27046">
        <ele>18.4</ele>
        <time>2014-01-06T13:25:41Z</time>
      </trkpt>
      <trkpt lat="43.5338" lon="5.27049">
        <ele>18.88</ele>
        <time>2014-01-06T13:25:53Z</time>
      </trkpt>
      <trkpt lat="43.53377" lon="5.27052">
        <ele>18.88</ele>
        <time>2014-01-06T13:25:57Z</time>
      </trkpt>
      <trkpt lat="43.53373" lon="5.27052">
        <ele>22.25</ele>
        <time>2014-01-06T13:26:03Z</time>
      </trkpt>
      <trkpt lat="43.53371" lon="5.27052">
        <ele>25.61</ele>
        <time>2014-01-06T13:26:05Z</time>
      </trkpt>
      <trkpt lat="43.53369" lon="5.2705">
        <ele>27.53</ele>
        <time>2014-01-06T13:26:07Z</time>
      </trkpt>
      <trkpt lat="43.53366" lon="5.2705">
        <ele>32.34</ele>
        <time>2014-01-06T13:26:10Z</time>
      </trkpt>
      <trkpt lat="43.53362" lon="5.2705">
        <ele>36.19</ele>
        <time>2014-01-06T13:26:14Z</time>
      </trkpt>
      <trkpt lat="43.53357" lon="5.27051">
        <ele>40.03</ele>
        <time>2014-01-06T13:26:19Z</time>
      </trkpt>
      <trkpt lat="43.53355" lon="5.27051">
        <ele>43.4</ele>
        <time>2014-01-06T13:26:23Z</time>
      </trkpt>
      <trkpt lat="43.53355" lon="5.27051">
        <ele>43.4</ele>
        <time>2014-01-06T13:26:24Z</time>
      </trkpt>
      <trkpt lat="43.53349" lon="5.27053">
        <ele>46.76</ele>
        <time>2014-01-06T13:26:30Z</time>
      </trkpt>
      <trkpt lat="43.53345" lon="5.27054">
        <ele>48.68</ele>
        <time>2014-01-06T13:26:34Z</time>
      </trkpt>
      <trkpt lat="43.53337" lon="5.27054">
        <ele>51.57</ele>
        <time>2014-01-06T13:26:42Z</time>
      </trkpt>
      <trkpt lat="43.53335" lon="5.27055">
        <ele>53.01</ele>
        <time>2014-01-06T13:26:44Z</time>
      </trkpt>
      <trkpt lat="43.53325" lon="5.27057">
        <ele>55.89</ele>
        <time>2014-01-06T13:26:57Z</time>
      </trkpt>
      <trkpt lat="43.53324" lon="5.27058">
        <ele>55.89</ele>
        <time>2014-01-06T13:26:58Z</time>
      </trkpt>
      <trkpt lat="43.53314" lon="5.2706">
        <ele>56.86</ele>
        <time>2014-01-06T13:27:13Z</time>
      </trkpt>
      <trkpt lat="43.53311" lon="5.27058">
        <ele>57.34</ele>
        <time>2014-01-06T13:27:30Z</time>
      </trkpt>
      <trkpt lat="43.53307" lon="5.27056">
        <ele>57.34</ele>
        <time>2014-01-06T13:27:44Z</time>
      </trkpt>
      <trkpt lat="43.53303" lon="5.27051">
        <ele>56.86</ele>
        <time>2014-01-06T13:28:04Z</time>
      </trkpt>
      <trkpt lat="43.5329" lon="5.27054">
        <ele>56.86</ele>
        <time>2014-01-06T13:28:17Z</time>
      </trkpt>
      <trkpt lat="43.53277" lon="5.27056">
        <ele>58.3</ele>
        <time>2014-01-06T13:28:31Z</time>
      </trkpt>
      <trkpt lat="43.53273" lon="5.27057">
        <ele>58.78</ele>
        <time>2014-01-06T13:28:35Z</time>
      </trkpt>
      <trkpt lat="43.53266" lon="5.27061">
        <ele>58.78</ele>
        <time>2014-01-06T13:28:43Z</time>
      </trkpt>
      <trkpt lat="43.53265" lon="5.27064">
        <ele>59.26</ele>
        <time>2014-01-06T13:28:45Z</time>
      </trkpt>
      <trkpt lat="43.53256" lon="5.27075">
        <ele>59.74</ele>
        <time>2014-01-06T13:28:58Z</time>
      </trkpt>
      <trkpt lat="43.53255" lon="5.27076">
        <ele>59.74</ele>
        <time>2014-01-06T13:29:00Z</time>
      </trkpt>
      <trkpt lat="43.53246" lon="5.27091">
        <ele>61.66</ele>
        <time>2014-01-06T13:29:13Z</time>
      </trkpt>
      <trkpt lat="43.53239" lon="5.27102">
        <ele>61.66</ele>
        <time>2014-01-06T13:29:27Z</time>
      </trkpt>
      <trkpt lat="43.53237" lon="5.27107">
        <ele>63.1</ele>
        <time>2014-01-06T13:29:39Z</time>
      </trkpt>
      <trkpt lat="43.53233" lon="5.27113">
        <ele>62.62</ele>
        <time>2014-01-06T13:30:02Z</time>
      </trkpt>
      <trkpt lat="43.53224" lon="5.27108">
        <ele>62.62</ele>
        <time>2014-01-06T13:30:18Z</time>
      </trkpt>
      <trkpt lat="43.53221" lon="5.27106">
        <ele>66.95</ele>
        <time>2014-01-06T13:30:31Z</time>
      </trkpt>
      <trkpt lat="43.53221" lon="5.27106">
        <ele>62.62</ele>
        <time>2014-01-06T13:30:32Z</time>
      </trkpt>
      <trkpt lat="43.5322" lon="5.27106">
        <ele>63.1</ele>
        <time>2014-01-06T13:30:33Z</time>
      </trkpt>
      <trkpt lat="43.53219" lon="5.27104">
        <ele>63.1</ele>
        <time>2014-01-06T13:30:36Z</time>
      </trkpt>
      <trkpt lat="43.53214" lon="5.27092">
        <ele>65.51</ele>
        <time>2014-01-06T13:30:48Z</time>
      </trkpt>
      <trkpt lat="43.5321" lon="5.27082">
        <ele>65.99</ele>
        <time>2014-01-06T13:30:58Z</time>
      </trkpt>
      <trkpt lat="43.53204" lon="5.27074">
        <ele>65.99</ele>
        <time>2014-01-06T13:31:08Z</time>
      </trkpt>
      <trkpt lat="43.53197" lon="5.27073">
        <ele>65.99</ele>
        <time>2014-01-06T13:31:16Z</time>
      </trkpt>
      <trkpt lat="43.53184" lon="5.27063">
        <ele>65.03</ele>
        <time>2014-01-06T13:31:29Z</time>
      </trkpt>
      <trkpt lat="43.53171" lon="5.27053">
        <ele>64.07</ele>
        <time>2014-01-06T13:31:43Z</time>
      </trkpt>
      <trkpt lat="43.53155" lon="5.27047">
        <ele>63.58</ele>
        <time>2014-01-06T13:31:58Z</time>
      </trkpt>
      <trkpt lat="43.53144" lon="5.27043">
        <ele>62.62</ele>
        <time>2014-01-06T13:32:08Z</time>
      </trkpt>
      <trkpt lat="43.53135" lon="5.27046">
        <ele>62.62</ele>
        <time>2014-01-06T13:32:16Z</time>
      </trkpt>
      <trkpt lat="43.53128" lon="5.27048">
        <ele>63.1</ele>
        <time>2014-01-06T13:32:22Z</time>
      </trkpt>
      <trkpt lat="43.53119" lon="5.27044">
        <ele>63.1</ele>
        <time>2014-01-06T13:32:30Z</time>
      </trkpt>
      <trkpt lat="43.53104" lon="5.2703">
        <ele>63.1</ele>
        <time>2014-01-06T13:32:46Z</time>
      </trkpt>
      <trkpt lat="43.5309" lon="5.2703">
        <ele>64.55</ele>
        <time>2014-01-06T13:33:00Z</time>
      </trkpt>
      <trkpt lat="43.53085" lon="5.27029">
        <ele>64.55</ele>
        <time>2014-01-06T13:33:04Z</time>
      </trkpt>
      <trkpt lat="43.53079" lon="5.27018">
        <ele>66.47</ele>
        <time>2014-01-06T13:33:14Z</time>
      </trkpt>
      <trkpt lat="43.53078" lon="5.27006">
        <ele>66.95</ele>
        <time>2014-01-06T13:33:21Z</time>
      </trkpt>
      <trkpt lat="43.53072" lon="5.26993">
        <ele>68.87</ele>
        <time>2014-01-06T13:33:33Z</time>
      </trkpt>
      <trkpt lat="43.53066" lon="5.26991">
        <ele>69.83</ele>
        <time>2014-01-06T13:33:48Z</time>
      </trkpt>
      <trkpt lat="43.53066" lon="5.26991">
        <ele>69.83</ele>
        <time>2014-01-06T13:33:50Z</time>
      </trkpt>
      <trkpt lat="43.53063" lon="5.2699">
        <ele>69.35</ele>
        <time>2014-01-06T13:34:07Z</time>
      </trkpt>
      <trkpt lat="43.53062" lon="5.26994">
        <ele>69.83</ele>
        <time>2014-01-06T13:34:23Z</time>
      </trkpt>
      <trkpt lat="43.5306" lon="5.26992">
        <ele>69.83</ele>
        <time>2014-01-06T13:34:34Z</time>
      </trkpt>
      <trkpt lat="43.5306" lon="5.2699">
        <ele>69.83</ele>
        <time>2014-01-06T13:34:38Z</time>
      </trkpt>
      <trkpt lat="43.53059" lon="5.2699">
        <ele>69.83</ele>
        <time>2014-01-06T13:34:48Z</time>
      </trkpt>
      <trkpt lat="43.53058" lon="5.2699">
        <ele>69.35</ele>
        <time>2014-01-06T13:35:05Z</time>
      </trkpt>
      <trkpt lat="43.53059" lon="5.2699">
        <ele>67.91</ele>
        <time>2014-01-06T13:35:29Z</time>
      </trkpt>
      <trkpt lat="43.53058" lon="5.2699">
        <ele>54.93</ele>
        <time>2014-01-06T13:35:30Z</time>
      </trkpt>
      <trkpt lat="43.53058" lon="5.26989">
        <ele>75.6</ele>
        <time>2014-01-06T13:35:31Z</time>
      </trkpt>
      <trkpt lat="43.53058" lon="5.26989">
        <ele>70.31</ele>
        <time>2014-01-06T13:35:32Z</time>
      </trkpt>
      <trkpt lat="43.53058" lon="5.26989">
        <ele>70.31</ele>
        <time>2014-01-06T13:35:36Z</time>
      </trkpt>
      <trkpt lat="43.53052" lon="5.26983">
        <ele>69.35</ele>
        <time>2014-01-06T13:35:44Z</time>
      </trkpt>
      <trkpt lat="43.53045" lon="5.26977">
        <ele>75.12</ele>
        <time>2014-01-06T13:35:52Z</time>
      </trkpt>
      <trkpt lat="43.53044" lon="5.26977">
        <ele>71.76</ele>
        <time>2014-01-06T13:35:53Z</time>
      </trkpt>
      <trkpt lat="43.53042" lon="5.26973">
        <ele>73.2</ele>
        <time>2014-01-06T13:35:57Z</time>
      </trkpt>
      <trkpt lat="43.53031" lon="5.26962">
        <ele>75.12</ele>
        <time>2014-01-06T13:36:10Z</time>
      </trkpt>
      <trkpt lat="43.5303" lon="5.26961">
        <ele>74.16</ele>
        <time>2014-01-06T13:36:12Z</time>
      </trkpt>
      <trkpt lat="43.5302" lon="5.2695">
        <ele>78</ele>
        <time>2014-01-06T13:36:23Z</time>
      </trkpt>
      <trkpt lat="43.53019" lon="5.26948">
        <ele>73.68</ele>
        <time>2014-01-06T13:36:25Z</time>
      </trkpt>
      <trkpt lat="43.53015" lon="5.26945">
        <ele>76.08</ele>
        <time>2014-01-06T13:36:30Z</time>
      </trkpt>
      <trkpt lat="43.53005" lon="5.26939">
        <ele>75.6</ele>
        <time>2014-01-06T13:36:40Z</time>
      </trkpt>
      <trkpt lat="43.52997" lon="5.26934">
        <ele>78.48</ele>
        <time>2014-01-06T13:36:48Z</time>
      </trkpt>
      <trkpt lat="43.52985" lon="5.2693">
        <ele>78.48</ele>
        <time>2014-01-06T13:37:01Z</time>
      </trkpt>
      <trkpt lat="43.52974" lon="5.26929">
        <ele>79.45</ele>
        <time>2014-01-06T13:37:15Z</time>
      </trkpt>
      <trkpt lat="43.52969" lon="5.26928">
        <ele>79.45</ele>
        <time>2014-01-06T13:37:42Z</time>
      </trkpt>
      <trkpt lat="43.52967" lon="5.26924">
        <ele>79.45</ele>
        <time>2014-01-06T13:37:58Z</time>
      </trkpt>
      <trkpt lat="43.52959" lon="5.26911">
        <ele>80.89</ele>
        <time>2014-01-06T13:38:10Z</time>
      </trkpt>
      <trkpt lat="43.52953" lon="5.26905">
        <ele>81.37</ele>
        <time>2014-01-06T13:38:17Z</time>
      </trkpt>
      <trkpt lat="43.52947" lon="5.26904">
        <ele>81.85</ele>
        <time>2014-01-06T13:38:23Z</time>
      </trkpt>
      <trkpt lat="43.52936" lon="5.26891">
        <ele>83.29</ele>
        <time>2014-01-06T13:38:36Z</time>
      </trkpt>
      <trkpt lat="43.52927" lon="5.26879">
        <ele>83.77</ele>
        <time>2014-01-06T13:38:48Z</time>
      </trkpt>
      <trkpt lat="43.52921" lon="5.26873">
        <ele>85.21</ele>
        <time>2014-01-06T13:38:54Z</time>
      </trkpt>
      <trkpt lat="43.52919" lon="5.26871">
        <ele>83.77</ele>
        <time>2014-01-06T13:38:56Z</time>
      </trkpt>
      <trkpt lat="43.52906" lon="5.2686">
        <ele>83.77</ele>
        <time>2014-01-06T13:39:10Z</time>
      </trkpt>
      <trkpt lat="43.52896" lon="5.26847">
        <ele>85.69</ele>
        <time>2014-01-06T13:39:22Z</time>
      </trkpt>
      <trkpt lat="43.52895" lon="5.26846">
        <ele>85.69</ele>
        <time>2014-01-06T13:39:23Z</time>
      </trkpt>
      <trkpt lat="43.52894" lon="5.26845">
        <ele>84.73</ele>
        <time>2014-01-06T13:39:25Z</time>
      </trkpt>
      <trkpt lat="43.52882" lon="5.26836">
        <ele>87.14</ele>
        <time>2014-01-06T13:39:38Z</time>
      </trkpt>
      <trkpt lat="43.52873" lon="5.26834">
        <ele>87.14</ele>
        <time>2014-01-06T13:39:49Z</time>
      </trkpt>
      <trkpt lat="43.52866" lon="5.26834">
        <ele>88.1</ele>
        <time>2014-01-06T13:40:03Z</time>
      </trkpt>
      <trkpt lat="43.52865" lon="5.26832">
        <ele>87.62</ele>
        <time>2014-01-06T13:40:23Z</time>
      </trkpt>
      <trkpt lat="43.52865" lon="5.26832">
        <ele>88.1</ele>
        <time>2014-01-06T13:40:44Z</time>
      </trkpt>
      <trkpt lat="43.52863" lon="5.2683">
        <ele>87.62</ele>
        <time>2014-01-06T13:41:15Z</time>
      </trkpt>
      <trkpt lat="43.52861" lon="5.26829">
        <ele>87.62</ele>
        <time>2014-01-06T13:41:37Z</time>
      </trkpt>
      <trkpt lat="43.52858" lon="5.2683">
        <ele>87.62</ele>
        <time>2014-01-06T13:41:40Z</time>
      </trkpt>
      <trkpt lat="43.52849" lon="5.26836">
        <ele>88.58</ele>
        <time>2014-01-06T13:41:53Z</time>
      </trkpt>
      <trkpt lat="43.52844" lon="5.26838">
        <ele>88.58</ele>
        <time>2014-01-06T13:42:07Z</time>
      </trkpt>
      <trkpt lat="43.52837" lon="5.26838">
        <ele>88.1</ele>
        <time>2014-01-06T13:42:13Z</time>
      </trkpt>
      <trkpt lat="43.52833" lon="5.26838">
        <ele>89.54</ele>
        <time>2014-01-06T13:42:16Z</time>
      </trkpt>
      <trkpt lat="43.52824" lon="5.26838">
        <ele>93.39</ele>
        <time>2014-01-06T13:42:26Z</time>
      </trkpt>
      <trkpt lat="43.52822" lon="5.26839">
        <ele>90.02</ele>
        <time>2014-01-06T13:42:28Z</time>
      </trkpt>
      <trkpt lat="43.52818" lon="5.26841">
        <ele>93.39</ele>
        <time>2014-01-06T13:42:32Z</time>
      </trkpt>
      <trkpt lat="43.52807" lon="5.26853">
        <ele>91.94</ele>
        <time>2014-01-06T13:42:46Z</time>
      </trkpt>
      <trkpt lat="43.528" lon="5.26867">
        <ele>90.5</ele>
        <time>2014-01-06T13:42:57Z</time>
      </trkpt>
      <trkpt lat="43.52795" lon="5.26877">
        <ele>92.9</ele>
        <time>2014-01-06T13:43:06Z</time>
      </trkpt>
      <trkpt lat="43.5279" lon="5.26883">
        <ele>92.9</ele>
        <time>2014-01-06T13:43:13Z</time>
      </trkpt>
      <trkpt lat="43.52784" lon="5.26888">
        <ele>96.75</ele>
        <time>2014-01-06T13:43:20Z</time>
      </trkpt>
      <trkpt lat="43.52783" lon="5.26889">
        <ele>95.31</ele>
        <time>2014-01-06T13:43:21Z</time>
      </trkpt>
      <trkpt lat="43.52781" lon="5.26892">
        <ele>94.83</ele>
        <time>2014-01-06T13:43:24Z</time>
      </trkpt>
      <trkpt lat="43.52777" lon="5.26893">
        <ele>96.75</ele>
        <time>2014-01-06T13:43:28Z</time>
      </trkpt>
      <trkpt lat="43.52774" lon="5.26895">
        <ele>93.87</ele>
        <time>2014-01-06T13:43:30Z</time>
      </trkpt>
      <trkpt lat="43.52771" lon="5.26895">
        <ele>97.23</ele>
        <time>2014-01-06T13:43:33Z</time>
      </trkpt>
      <trkpt lat="43.52769" lon="5.26896">
        <ele>93.39</ele>
        <time>2014-01-06T13:43:35Z</time>
      </trkpt>
      <trkpt lat="43.52766" lon="5.26895">
        <ele>96.75</ele>
        <time>2014-01-06T13:43:37Z</time>
      </trkpt>
      <trkpt lat="43.52763" lon="5.26895">
        <ele>94.35</ele>
        <time>2014-01-06T13:43:40Z</time>
      </trkpt>
      <trkpt lat="43.52761" lon="5.26894">
        <ele>98.19</ele>
        <time>2014-01-06T13:43:42Z</time>
      </trkpt>
      <trkpt lat="43.52758" lon="5.26893">
        <ele>98.19</ele>
        <time>2014-01-06T13:43:47Z</time>
      </trkpt>
      <trkpt lat="43.52745" lon="5.26885">
        <ele>99.15</ele>
        <time>2014-01-06T13:44:00Z</time>
      </trkpt>
      <trkpt lat="43.52732" lon="5.26877">
        <ele>100.6</ele>
        <time>2014-01-06T13:44:13Z</time>
      </trkpt>
      <trkpt lat="43.52732" lon="5.26876">
        <ele>100.6</ele>
        <time>2014-01-06T13:44:14Z</time>
      </trkpt>
      <trkpt lat="43.52732" lon="5.26877">
        <ele>99.15</ele>
        <time>2014-01-06T13:44:16Z</time>
      </trkpt>
      <trkpt lat="43.52731" lon="5.26872">
        <ele>99.63</ele>
        <time>2014-01-06T13:44:36Z</time>
      </trkpt>
      <trkpt lat="43.52733" lon="5.26875">
        <ele>100.11</ele>
        <time>2014-01-06T13:44:58Z</time>
      </trkpt>
      <trkpt lat="43.52732" lon="5.26879">
        <ele>100.6</ele>
        <time>2014-01-06T13:45:29Z</time>
      </trkpt>
      <trkpt lat="43.52717" lon="5.26881">
        <ele>99.15</ele>
        <time>2014-01-06T13:45:42Z</time>
      </trkpt>
      <trkpt lat="43.52714" lon="5.26881">
        <ele>100.6</ele>
        <time>2014-01-06T13:45:45Z</time>
      </trkpt>
      <trkpt lat="43.527" lon="5.26882">
        <ele>100.11</ele>
        <time>2014-01-06T13:45:58Z</time>
      </trkpt>
      <trkpt lat="43.52686" lon="5.26876">
        <ele>101.08</ele>
        <time>2014-01-06T13:46:11Z</time>
      </trkpt>
      <trkpt lat="43.52685" lon="5.26875">
        <ele>102.04</ele>
        <time>2014-01-06T13:46:12Z</time>
      </trkpt>
      <trkpt lat="43.52683" lon="5.26875">
        <ele>100.11</ele>
        <time>2014-01-06T13:46:14Z</time>
      </trkpt>
      <trkpt lat="43.52678" lon="5.26873">
        <ele>102.04</ele>
        <time>2014-01-06T13:46:18Z</time>
      </trkpt>
      <trkpt lat="43.52671" lon="5.2687">
        <ele>101.08</ele>
        <time>2014-01-06T13:46:25Z</time>
      </trkpt>
      <trkpt lat="43.52666" lon="5.26865">
        <ele>99.15</ele>
        <time>2014-01-06T13:46:31Z</time>
      </trkpt>
      <trkpt lat="43.52663" lon="5.26863">
        <ele>103</ele>
        <time>2014-01-06T13:46:34Z</time>
      </trkpt>
      <trkpt lat="43.52662" lon="5.26861">
        <ele>101.56</ele>
        <time>2014-01-06T13:46:36Z</time>
      </trkpt>
      <trkpt lat="43.52648" lon="5.26852">
        <ele>103</ele>
        <time>2014-01-06T13:46:48Z</time>
      </trkpt>
      <trkpt lat="43.52635" lon="5.26843">
        <ele>103.48</ele>
        <time>2014-01-06T13:47:01Z</time>
      </trkpt>
      <trkpt lat="43.5263" lon="5.2684">
        <ele>104.44</ele>
        <time>2014-01-06T13:47:06Z</time>
      </trkpt>
      <trkpt lat="43.52628" lon="5.26838">
        <ele>103</ele>
        <time>2014-01-06T13:47:08Z</time>
      </trkpt>
      <trkpt lat="43.5262" lon="5.2683">
        <ele>102.04</ele>
        <time>2014-01-06T13:47:18Z</time>
      </trkpt>
      <trkpt lat="43.52617" lon="5.2683">
        <ele>104.92</ele>
        <time>2014-01-06T13:47:21Z</time>
      </trkpt>
      <trkpt lat="43.52615" lon="5.2683">
        <ele>104.44</ele>
        <time>2014-01-06T13:47:23Z</time>
      </trkpt>
      <trkpt lat="43.52605" lon="5.2683">
        <ele>106.36</ele>
        <time>2014-01-06T13:47:31Z</time>
      </trkpt>
      <trkpt lat="43.52602" lon="5.26829">
        <ele>104.44</ele>
        <time>2014-01-06T13:47:34Z</time>
      </trkpt>
      <trkpt lat="43.526" lon="5.26829">
        <ele>105.88</ele>
        <time>2014-01-06T13:47:36Z</time>
      </trkpt>
      <trkpt lat="43.52593" lon="5.26827">
        <ele>106.36</ele>
        <time>2014-01-06T13:47:42Z</time>
      </trkpt>
      <trkpt lat="43.52582" lon="5.26825">
        <ele>104.92</ele>
        <time>2014-01-06T13:47:55Z</time>
      </trkpt>
      <trkpt lat="43.52576" lon="5.26831">
        <ele>105.88</ele>
        <time>2014-01-06T13:48:04Z</time>
      </trkpt>
      <trkpt lat="43.5257" lon="5.26835">
        <ele>106.36</ele>
        <time>2014-01-06T13:48:09Z</time>
      </trkpt>
      <trkpt lat="43.52564" lon="5.26839">
        <ele>105.88</ele>
        <time>2014-01-06T13:48:15Z</time>
      </trkpt>
      <trkpt lat="43.52561" lon="5.2684">
        <ele>105.4</ele>
        <time>2014-01-06T13:48:17Z</time>
      </trkpt>
      <trkpt lat="43.52554" lon="5.26839">
        <ele>104.92</ele>
        <time>2014-01-06T13:48:23Z</time>
      </trkpt>
      <trkpt lat="43.52542" lon="5.26844">
        <ele>105.88</ele>
        <time>2014-01-06T13:48:35Z</time>
      </trkpt>
      <trkpt lat="43.52539" lon="5.26848">
        <ele>104.92</ele>
        <time>2014-01-06T13:48:39Z</time>
      </trkpt>
      <trkpt lat="43.52536" lon="5.26853">
        <ele>105.4</ele>
        <time>2014-01-06T13:48:44Z</time>
      </trkpt>
      <trkpt lat="43.52524" lon="5.26865">
        <ele>104.92</ele>
        <time>2014-01-06T13:48:57Z</time>
      </trkpt>
      <trkpt lat="43.52515" lon="5.26877">
        <ele>104.92</ele>
        <time>2014-01-06T13:49:09Z</time>
      </trkpt>
      <trkpt lat="43.52506" lon="5.26885">
        <ele>106.36</ele>
        <time>2014-01-06T13:49:18Z</time>
      </trkpt>
      <trkpt lat="43.52494" lon="5.26897">
        <ele>105.88</ele>
        <time>2014-01-06T13:49:32Z</time>
      </trkpt>
      <trkpt lat="43.52487" lon="5.26906">
        <ele>107.32</ele>
        <time>2014-01-06T13:49:40Z</time>
      </trkpt>
      <trkpt lat="43.5248" lon="5.26922">
        <ele>105.88</ele>
        <time>2014-01-06T13:49:53Z</time>
      </trkpt>
      <trkpt lat="43.52471" lon="5.26938">
        <ele>105.4</ele>
        <time>2014-01-06T13:50:06Z</time>
      </trkpt>
      <trkpt lat="43.52462" lon="5.26954">
        <ele>107.32</ele>
        <time>2014-01-06T13:50:20Z</time>
      </trkpt>
      <trkpt lat="43.5246" lon="5.26958">
        <ele>105.4</ele>
        <time>2014-01-06T13:50:23Z</time>
      </trkpt>
      <trkpt lat="43.52457" lon="5.26964">
        <ele>106.84</ele>
        <time>2014-01-06T13:50:37Z</time>
      </trkpt>
      <trkpt lat="43.52453" lon="5.26969">
        <ele>106.84</ele>
        <time>2014-01-06T13:50:57Z</time>
      </trkpt>
      <trkpt lat="43.52449" lon="5.26989">
        <ele>107.81</ele>
        <time>2014-01-06T13:51:11Z</time>
      </trkpt>
      <trkpt lat="43.5245" lon="5.26991">
        <ele>108.77</ele>
        <time>2014-01-06T13:51:13Z</time>
      </trkpt>
      <trkpt lat="43.52449" lon="5.26993">
        <ele>107.81</ele>
        <time>2014-01-06T13:51:15Z</time>
      </trkpt>
      <trkpt lat="43.52449" lon="5.26995">
        <ele>106.84</ele>
        <time>2014-01-06T13:51:16Z</time>
      </trkpt>
      <trkpt lat="43.5245" lon="5.27003">
        <ele>108.29</ele>
        <time>2014-01-06T13:51:22Z</time>
      </trkpt>
      <trkpt lat="43.52453" lon="5.27013">
        <ele>110.69</ele>
        <time>2014-01-06T13:51:29Z</time>
      </trkpt>
      <trkpt lat="43.5246" lon="5.27025">
        <ele>110.69</ele>
        <time>2014-01-06T13:51:39Z</time>
      </trkpt>
      <trkpt lat="43.52459" lon="5.27032">
        <ele>110.69</ele>
        <time>2014-01-06T13:51:44Z</time>
      </trkpt>
      <trkpt lat="43.52447" lon="5.2704">
        <ele>111.65</ele>
        <time>2014-01-06T13:51:54Z</time>
      </trkpt>
      <trkpt lat="43.52438" lon="5.2705">
        <ele>110.69</ele>
        <time>2014-01-06T13:52:06Z</time>
      </trkpt>
      <trkpt lat="43.52437" lon="5.27052">
        <ele>112.61</ele>
        <time>2014-01-06T13:52:08Z</time>
      </trkpt>
      <trkpt lat="43.52426" lon="5.27066">
        <ele>112.13</ele>
        <time>2014-01-06T13:52:22Z</time>
      </trkpt>
      <trkpt lat="43.52424" lon="5.27067">
        <ele>112.61</ele>
        <time>2014-01-06T13:52:24Z</time>
      </trkpt>
      <trkpt lat="43.52422" lon="5.27067">
        <ele>111.65</ele>
        <time>2014-01-06T13:52:25Z</time>
      </trkpt>
      <trkpt lat="43.52412" lon="5.27073">
        <ele>111.17</ele>
        <time>2014-01-06T13:52:36Z</time>
      </trkpt>
      <trkpt lat="43.52409" lon="5.27079">
        <ele>112.13</ele>
        <time>2014-01-06T13:52:41Z</time>
      </trkpt>
      <trkpt lat="43.52406" lon="5.27082">
        <ele>113.09</ele>
        <time>2014-01-06T13:52:45Z</time>
      </trkpt>
      <trkpt lat="43.524" lon="5.2709">
        <ele>111.65</ele>
        <time>2014-01-06T13:52:53Z</time>
      </trkpt>
      <trkpt lat="43.52395" lon="5.27099">
        <ele>113.09</ele>
        <time>2014-01-06T13:53:01Z</time>
      </trkpt>
      <trkpt lat="43.52388" lon="5.27108">
        <ele>113.57</ele>
        <time>2014-01-06T13:53:11Z</time>
      </trkpt>
      <trkpt lat="43.52388" lon="5.27109">
        <ele>112.61</ele>
        <time>2014-01-06T13:53:12Z</time>
      </trkpt>
      <trkpt lat="43.52384" lon="5.27113">
        <ele>114.05</ele>
        <time>2014-01-06T13:53:16Z</time>
      </trkpt>
      <trkpt lat="43.52383" lon="5.27114">
        <ele>113.09</ele>
        <time>2014-01-06T13:53:17Z</time>
      </trkpt>
      <trkpt lat="43.52382" lon="5.27117">
        <ele>115.01</ele>
        <time>2014-01-06T13:53:20Z</time>
      </trkpt>
      <trkpt lat="43.5238" lon="5.27117">
        <ele>113.09</ele>
        <time>2014-01-06T13:53:25Z</time>
      </trkpt>
      <trkpt lat="43.52377" lon="5.2712">
        <ele>113.09</ele>
        <time>2014-01-06T13:53:30Z</time>
      </trkpt>
      <trkpt lat="43.52374" lon="5.27123">
        <ele>114.53</ele>
        <time>2014-01-06T13:53:33Z</time>
      </trkpt>
      <trkpt lat="43.52373" lon="5.27126">
        <ele>112.61</ele>
        <time>2014-01-06T13:53:35Z</time>
      </trkpt>
      <trkpt lat="43.52371" lon="5.27132">
        <ele>114.05</ele>
        <time>2014-01-06T13:53:39Z</time>
      </trkpt>
      <trkpt lat="43.52364" lon="5.27139">
        <ele>114.53</ele>
        <time>2014-01-06T13:53:50Z</time>
      </trkpt>
      <trkpt lat="43.52359" lon="5.27136">
        <ele>115.01</ele>
        <time>2014-01-06T13:54:10Z</time>
      </trkpt>
      <trkpt lat="43.52357" lon="5.27139">
        <ele>114.53</ele>
        <time>2014-01-06T13:54:13Z</time>
      </trkpt>
      <trkpt lat="43.52356" lon="5.27143">
        <ele>115.98</ele>
        <time>2014-01-06T13:54:16Z</time>
      </trkpt>
      <trkpt lat="43.52356" lon="5.27147">
        <ele>117.9</ele>
        <time>2014-01-06T13:54:20Z</time>
      </trkpt>
      <trkpt lat="43.52356" lon="5.27147">
        <ele>103.96</ele>
        <time>2014-01-06T13:54:22Z</time>
      </trkpt>
      <trkpt lat="43.52356" lon="5.27148">
        <ele>118.86</ele>
        <time>2014-01-06T13:54:23Z</time>
      </trkpt>
      <trkpt lat="43.52355" lon="5.27149">
        <ele>115.01</ele>
        <time>2014-01-06T13:54:24Z</time>
      </trkpt>
      <trkpt lat="43.52351" lon="5.27156">
        <ele>116.94</ele>
        <time>2014-01-06T13:54:31Z</time>
      </trkpt>
      <trkpt lat="43.52347" lon="5.27163">
        <ele>116.46</ele>
        <time>2014-01-06T13:54:37Z</time>
      </trkpt>
      <trkpt lat="43.52344" lon="5.2717">
        <ele>116.94</ele>
        <time>2014-01-06T13:54:42Z</time>
      </trkpt>
      <trkpt lat="43.52337" lon="5.27187">
        <ele>116.94</ele>
        <time>2014-01-06T13:54:54Z</time>
      </trkpt>
      <trkpt lat="43.52326" lon="5.27199">
        <ele>116.94</ele>
        <time>2014-01-06T13:55:05Z</time>
      </trkpt>
      <trkpt lat="43.52325" lon="5.27202">
        <ele>115.98</ele>
        <time>2014-01-06T13:55:08Z</time>
      </trkpt>
      <trkpt lat="43.52322" lon="5.27208">
        <ele>115.98</ele>
        <time>2014-01-06T13:55:13Z</time>
      </trkpt>
      <trkpt lat="43.52315" lon="5.27218">
        <ele>117.9</ele>
        <time>2014-01-06T13:55:23Z</time>
      </trkpt>
      <trkpt lat="43.52308" lon="5.27234">
        <ele>115.98</ele>
        <time>2014-01-06T13:55:35Z</time>
      </trkpt>
      <trkpt lat="43.52306" lon="5.27238">
        <ele>116.46</ele>
        <time>2014-01-06T13:55:38Z</time>
      </trkpt>
      <trkpt lat="43.523" lon="5.27246">
        <ele>116.94</ele>
        <time>2014-01-06T13:55:46Z</time>
      </trkpt>
      <trkpt lat="43.52294" lon="5.27257">
        <ele>116.94</ele>
        <time>2014-01-06T13:55:58Z</time>
      </trkpt>
      <trkpt lat="43.52288" lon="5.27269">
        <ele>115.98</ele>
        <time>2014-01-06T13:56:07Z</time>
      </trkpt>
      <trkpt lat="43.52286" lon="5.27272">
        <ele>117.9</ele>
        <time>2014-01-06T13:56:10Z</time>
      </trkpt>
      <trkpt lat="43.52285" lon="5.27278">
        <ele>116.46</ele>
        <time>2014-01-06T13:56:17Z</time>
      </trkpt>
      <trkpt lat="43.52281" lon="5.2729">
        <ele>116.94</ele>
        <time>2014-01-06T13:56:35Z</time>
      </trkpt>
      <trkpt lat="43.52279" lon="5.27293">
        <ele>116.94</ele>
        <time>2014-01-06T13:56:38Z</time>
      </trkpt>
      <trkpt lat="43.52276" lon="5.27298">
        <ele>117.9</ele>
        <time>2014-01-06T13:56:42Z</time>
      </trkpt>
      <trkpt lat="43.52275" lon="5.273">
        <ele>116.46</ele>
        <time>2014-01-06T13:56:44Z</time>
      </trkpt>
      <trkpt lat="43.52266" lon="5.27304">
        <ele>117.42</ele>
        <time>2014-01-06T13:57:02Z</time>
      </trkpt>
      <trkpt lat="43.52264" lon="5.27305">
        <ele>121.26</ele>
        <time>2014-01-06T13:57:08Z</time>
      </trkpt>
      <trkpt lat="43.52264" lon="5.27306">
        <ele>117.42</ele>
        <time>2014-01-06T13:57:09Z</time>
      </trkpt>
      <trkpt lat="43.52264" lon="5.27306">
        <ele>117.9</ele>
        <time>2014-01-06T13:57:44Z</time>
      </trkpt>
      <trkpt lat="43.52266" lon="5.27304">
        <ele>117.42</ele>
        <time>2014-01-06T13:58:17Z</time>
      </trkpt>
      <trkpt lat="43.52263" lon="5.27312">
        <ele>116.94</ele>
        <time>2014-01-06T13:58:31Z</time>
      </trkpt>
      <trkpt lat="43.52257" lon="5.2732">
        <ele>118.38</ele>
        <time>2014-01-06T13:58:40Z</time>
      </trkpt>
      <trkpt lat="43.52257" lon="5.27322">
        <ele>117.9</ele>
        <time>2014-01-06T13:58:56Z</time>
      </trkpt>
      <trkpt lat="43.52254" lon="5.27323">
        <ele>117.9</ele>
        <time>2014-01-06T13:59:11Z</time>
      </trkpt>
      <trkpt lat="43.52254" lon="5.27323">
        <ele>117.42</ele>
        <time>2014-01-06T13:59:25Z</time>
      </trkpt>
      <trkpt lat="43.52252" lon="5.27323">
        <ele>118.86</ele>
        <time>2014-01-06T13:59:28Z</time>
      </trkpt>
      <trkpt lat="43.52248" lon="5.27324">
        <ele>118.86</ele>
        <time>2014-01-06T13:59:32Z</time>
      </trkpt>
      <trkpt lat="43.52244" lon="5.27326">
        <ele>116.94</ele>
        <time>2014-01-06T13:59:47Z</time>
      </trkpt>
      <trkpt lat="43.52241" lon="5.2733">
        <ele>117.42</ele>
        <time>2014-01-06T13:59:56Z</time>
      </trkpt>
      <trkpt lat="43.52235" lon="5.27336">
        <ele>118.86</ele>
        <time>2014-01-06T14:00:05Z</time>
      </trkpt>
      <trkpt lat="43.52233" lon="5.27339">
        <ele>117.42</ele>
        <time>2014-01-06T14:00:07Z</time>
      </trkpt>
      <trkpt lat="43.52231" lon="5.2734">
        <ele>118.86</ele>
        <time>2014-01-06T14:00:09Z</time>
      </trkpt>
      <trkpt lat="43.52231" lon="5.27342">
        <ele>118.38</ele>
        <time>2014-01-06T14:00:11Z</time>
      </trkpt>
      <trkpt lat="43.52228" lon="5.27348">
        <ele>118.86</ele>
        <time>2014-01-06T14:00:16Z</time>
      </trkpt>
      <trkpt lat="43.52225" lon="5.27365">
        <ele>118.86</ele>
        <time>2014-01-06T14:00:28Z</time>
      </trkpt>
      <trkpt lat="43.52226" lon="5.2737">
        <ele>118.86</ele>
        <time>2014-01-06T14:00:41Z</time>
      </trkpt>
      <trkpt lat="43.52226" lon="5.27372">
        <ele>119.82</ele>
        <time>2014-01-06T14:00:43Z</time>
      </trkpt>
      <trkpt lat="43.52229" lon="5.27376">
        <ele>118.38</ele>
        <time>2014-01-06T14:01:02Z</time>
      </trkpt>
      <trkpt lat="43.52232" lon="5.27385">
        <ele>118.86</ele>
        <time>2014-01-06T14:01:17Z</time>
      </trkpt>
      <trkpt lat="43.52234" lon="5.27389">
        <ele>120.3</ele>
        <time>2014-01-06T14:01:21Z</time>
      </trkpt>
      <trkpt lat="43.52235" lon="5.27393">
        <ele>118.38</ele>
        <time>2014-01-06T14:01:24Z</time>
      </trkpt>
      <trkpt lat="43.52237" lon="5.274">
        <ele>118.86</ele>
        <time>2014-01-06T14:01:29Z</time>
      </trkpt>
      <trkpt lat="43.52242" lon="5.27416">
        <ele>119.82</ele>
        <time>2014-01-06T14:01:42Z</time>
      </trkpt>
      <trkpt lat="43.52245" lon="5.27429">
        <ele>122.22</ele>
        <time>2014-01-06T14:01:51Z</time>
      </trkpt>
      <trkpt lat="43.52246" lon="5.27436">
        <ele>122.71</ele>
        <time>2014-01-06T14:01:56Z</time>
      </trkpt>
      <trkpt lat="43.52246" lon="5.27439">
        <ele>121.74</ele>
        <time>2014-01-06T14:01:58Z</time>
      </trkpt>
      <trkpt lat="43.52245" lon="5.27436">
        <ele>122.22</ele>
        <time>2014-01-06T14:02:03Z</time>
      </trkpt>
      <trkpt lat="43.52245" lon="5.27441">
        <ele>125.11</ele>
        <time>2014-01-06T14:02:07Z</time>
      </trkpt>
      <trkpt lat="43.52244" lon="5.27444">
        <ele>121.74</ele>
        <time>2014-01-06T14:02:09Z</time>
      </trkpt>
      <trkpt lat="43.52245" lon="5.27451">
        <ele>124.15</ele>
        <time>2014-01-06T14:02:14Z</time>
      </trkpt>
      <trkpt lat="43.52245" lon="5.27453">
        <ele>123.19</ele>
        <time>2014-01-06T14:02:15Z</time>
      </trkpt>
      <trkpt lat="43.52247" lon="5.27457">
        <ele>126.55</ele>
        <time>2014-01-06T14:02:19Z</time>
      </trkpt>
      <trkpt lat="43.52249" lon="5.2746">
        <ele>123.19</ele>
        <time>2014-01-06T14:02:21Z</time>
      </trkpt>
      <trkpt lat="43.5225" lon="5.27463">
        <ele>127.03</ele>
        <time>2014-01-06T14:02:24Z</time>
      </trkpt>
      <trkpt lat="43.52252" lon="5.27465">
        <ele>122.71</ele>
        <time>2014-01-06T14:02:26Z</time>
      </trkpt>
      <trkpt lat="43.52253" lon="5.27467">
        <ele>126.07</ele>
        <time>2014-01-06T14:02:28Z</time>
      </trkpt>
      <trkpt lat="43.52253" lon="5.27468">
        <ele>127.03</ele>
        <time>2014-01-06T14:02:29Z</time>
      </trkpt>
      <trkpt lat="43.52255" lon="5.27471">
        <ele>125.11</ele>
        <time>2014-01-06T14:02:32Z</time>
      </trkpt>
      <trkpt lat="43.52256" lon="5.27473">
        <ele>128.47</ele>
        <time>2014-01-06T14:02:34Z</time>
      </trkpt>
      <trkpt lat="43.52258" lon="5.27477">
        <ele>126.07</ele>
        <time>2014-01-06T14:02:37Z</time>
      </trkpt>
      <trkpt lat="43.52259" lon="5.27479">
        <ele>129.43</ele>
        <time>2014-01-06T14:02:39Z</time>
      </trkpt>
      <trkpt lat="43.5226" lon="5.27481">
        <ele>125.59</ele>
        <time>2014-01-06T14:02:41Z</time>
      </trkpt>
      <trkpt lat="43.52262" lon="5.27485">
        <ele>128.95</ele>
        <time>2014-01-06T14:02:44Z</time>
      </trkpt>
      <trkpt lat="43.52262" lon="5.27487">
        <ele>125.59</ele>
        <time>2014-01-06T14:02:46Z</time>
      </trkpt>
      <trkpt lat="43.52262" lon="5.27489">
        <ele>128.95</ele>
        <time>2014-01-06T14:02:48Z</time>
      </trkpt>
      <trkpt lat="43.52264" lon="5.27493">
        <ele>127.03</ele>
        <time>2014-01-06T14:02:51Z</time>
      </trkpt>
      <trkpt lat="43.52265" lon="5.27496">
        <ele>132.32</ele>
        <time>2014-01-06T14:02:53Z</time>
      </trkpt>
      <trkpt lat="43.52265" lon="5.27497">
        <ele>130.4</ele>
        <time>2014-01-06T14:02:54Z</time>
      </trkpt>
      <trkpt lat="43.52272" lon="5.27512">
        <ele>128.95</ele>
        <time>2014-01-06T14:03:06Z</time>
      </trkpt>
      <trkpt lat="43.52274" lon="5.27516">
        <ele>132.8</ele>
        <time>2014-01-06T14:03:09Z</time>
      </trkpt>
      <trkpt lat="43.52279" lon="5.27524">
        <ele>133.28</ele>
        <time>2014-01-06T14:03:17Z</time>
      </trkpt>
      <trkpt lat="43.5228" lon="5.27528">
        <ele>130.88</ele>
        <time>2014-01-06T14:03:20Z</time>
      </trkpt>
      <trkpt lat="43.52281" lon="5.27531">
        <ele>133.76</ele>
        <time>2014-01-06T14:03:22Z</time>
      </trkpt>
      <trkpt lat="43.52282" lon="5.27535">
        <ele>131.84</ele>
        <time>2014-01-06T14:03:25Z</time>
      </trkpt>
      <trkpt lat="43.52283" lon="5.27537">
        <ele>136.16</ele>
        <time>2014-01-06T14:03:27Z</time>
      </trkpt>
      <trkpt lat="43.52284" lon="5.27539">
        <ele>132.8</ele>
        <time>2014-01-06T14:03:29Z</time>
      </trkpt>
      <trkpt lat="43.52285" lon="5.27545">
        <ele>132.8</ele>
        <time>2014-01-06T14:03:34Z</time>
      </trkpt>
      <trkpt lat="43.52285" lon="5.27545">
        <ele>136.16</ele>
        <time>2014-01-06T14:03:48Z</time>
      </trkpt>
      <trkpt lat="43.52286" lon="5.27546">
        <ele>132.8</ele>
        <time>2014-01-06T14:03:49Z</time>
      </trkpt>
      <trkpt lat="43.52286" lon="5.27558">
        <ele>135.68</ele>
        <time>2014-01-06T14:04:04Z</time>
      </trkpt>
      <trkpt lat="43.52285" lon="5.27564">
        <ele>136.16</ele>
        <time>2014-01-06T14:04:09Z</time>
      </trkpt>
      <trkpt lat="43.52287" lon="5.27573">
        <ele>135.68</ele>
        <time>2014-01-06T14:04:15Z</time>
      </trkpt>
      <trkpt lat="43.52288" lon="5.27575">
        <ele>137.61</ele>
        <time>2014-01-06T14:04:17Z</time>
      </trkpt>
      <trkpt lat="43.5229" lon="5.27582">
        <ele>137.61</ele>
        <time>2014-01-06T14:04:22Z</time>
      </trkpt>
      <trkpt lat="43.52291" lon="5.27585">
        <ele>136.64</ele>
        <time>2014-01-06T14:04:24Z</time>
      </trkpt>
      <trkpt lat="43.52295" lon="5.2759">
        <ele>140.01</ele>
        <time>2014-01-06T14:04:33Z</time>
      </trkpt>
      <trkpt lat="43.52297" lon="5.27589">
        <ele>138.57</ele>
        <time>2014-01-06T14:04:53Z</time>
      </trkpt>
      <trkpt lat="43.52297" lon="5.27597">
        <ele>140.01</ele>
        <time>2014-01-06T14:05:15Z</time>
      </trkpt>
      <trkpt lat="43.52298" lon="5.27602">
        <ele>140.97</ele>
        <time>2014-01-06T14:05:19Z</time>
      </trkpt>
      <trkpt lat="43.523" lon="5.27608">
        <ele>140.01</ele>
        <time>2014-01-06T14:05:24Z</time>
      </trkpt>
      <trkpt lat="43.52303" lon="5.27618">
        <ele>143.37</ele>
        <time>2014-01-06T14:05:32Z</time>
      </trkpt>
      <trkpt lat="43.52303" lon="5.2762">
        <ele>141.45</ele>
        <time>2014-01-06T14:05:33Z</time>
      </trkpt>
      <trkpt lat="43.52308" lon="5.2763">
        <ele>144.82</ele>
        <time>2014-01-06T14:05:42Z</time>
      </trkpt>
      <trkpt lat="43.52308" lon="5.27631">
        <ele>141.45</ele>
        <time>2014-01-06T14:05:43Z</time>
      </trkpt>
      <trkpt lat="43.5231" lon="5.27635">
        <ele>144.82</ele>
        <time>2014-01-06T14:05:46Z</time>
      </trkpt>
      <trkpt lat="43.5231" lon="5.27639">
        <ele>141.45</ele>
        <time>2014-01-06T14:05:49Z</time>
      </trkpt>
      <trkpt lat="43.5231" lon="5.2764">
        <ele>144.34</ele>
        <time>2014-01-06T14:05:50Z</time>
      </trkpt>
      <trkpt lat="43.5231" lon="5.27641">
        <ele>146.26</ele>
        <time>2014-01-06T14:05:51Z</time>
      </trkpt>
      <trkpt lat="43.5231" lon="5.27644">
        <ele>141.93</ele>
        <time>2014-01-06T14:05:53Z</time>
      </trkpt>
      <trkpt lat="43.52309" lon="5.27645">
        <ele>145.3</ele>
        <time>2014-01-06T14:05:54Z</time>
      </trkpt>
      <trkpt lat="43.52309" lon="5.27646">
        <ele>147.22</ele>
        <time>2014-01-06T14:05:55Z</time>
      </trkpt>
      <trkpt lat="43.52305" lon="5.27649">
        <ele>145.78</ele>
        <time>2014-01-06T14:06:00Z</time>
      </trkpt>
      <trkpt lat="43.52303" lon="5.27651">
        <ele>144.82</ele>
        <time>2014-01-06T14:06:02Z</time>
      </trkpt>
      <trkpt lat="43.52297" lon="5.27655">
        <ele>145.3</ele>
        <time>2014-01-06T14:06:09Z</time>
      </trkpt>
      <trkpt lat="43.52295" lon="5.27656">
        <ele>144.34</ele>
        <time>2014-01-06T14:06:11Z</time>
      </trkpt>
      <trkpt lat="43.5229" lon="5.27659">
        <ele>144.82</ele>
        <time>2014-01-06T14:06:16Z</time>
      </trkpt>
      <trkpt lat="43.52288" lon="5.27662">
        <ele>146.74</ele>
        <time>2014-01-06T14:06:19Z</time>
      </trkpt>
      <trkpt lat="43.52285" lon="5.27664">
        <ele>141.93</ele>
        <time>2014-01-06T14:06:23Z</time>
      </trkpt>
      <trkpt lat="43.52284" lon="5.27664">
        <ele>148.18</ele>
        <time>2014-01-06T14:06:24Z</time>
      </trkpt>
      <trkpt lat="43.52283" lon="5.27667">
        <ele>147.22</ele>
        <time>2014-01-06T14:06:31Z</time>
      </trkpt>
      <trkpt lat="43.52284" lon="5.27672">
        <ele>148.18</ele>
        <time>2014-01-06T14:06:35Z</time>
      </trkpt>
      <trkpt lat="43.52282" lon="5.27677">
        <ele>146.26</ele>
        <time>2014-01-06T14:06:38Z</time>
      </trkpt>
      <trkpt lat="43.52278" lon="5.27698">
        <ele>147.22</ele>
        <time>2014-01-06T14:06:52Z</time>
      </trkpt>
      <trkpt lat="43.52278" lon="5.277">
        <ele>147.7</ele>
        <time>2014-01-06T14:06:53Z</time>
      </trkpt>
      <trkpt lat="43.52274" lon="5.27713">
        <ele>146.26</ele>
        <time>2014-01-06T14:07:02Z</time>
      </trkpt>
      <trkpt lat="43.5227" lon="5.27725">
        <ele>145.78</ele>
        <time>2014-01-06T14:07:15Z</time>
      </trkpt>
      <trkpt lat="43.52263" lon="5.27743">
        <ele>146.74</ele>
        <time>2014-01-06T14:07:28Z</time>
      </trkpt>
      <trkpt lat="43.52259" lon="5.27755">
        <ele>148.66</ele>
        <time>2014-01-06T14:07:36Z</time>
      </trkpt>
      <trkpt lat="43.52257" lon="5.27774">
        <ele>147.7</ele>
        <time>2014-01-06T14:07:50Z</time>
      </trkpt>
      <trkpt lat="43.52257" lon="5.27794">
        <ele>149.14</ele>
        <time>2014-01-06T14:08:03Z</time>
      </trkpt>
      <trkpt lat="43.52254" lon="5.27812">
        <ele>148.66</ele>
        <time>2014-01-06T14:08:15Z</time>
      </trkpt>
      <trkpt lat="43.52252" lon="5.27822">
        <ele>147.7</ele>
        <time>2014-01-06T14:08:22Z</time>
      </trkpt>
      <trkpt lat="43.5225" lon="5.27829">
        <ele>148.18</ele>
        <time>2014-01-06T14:08:27Z</time>
      </trkpt>
      <trkpt lat="43.52249" lon="5.27833">
        <ele>150.1</ele>
        <time>2014-01-06T14:08:30Z</time>
      </trkpt>
      <trkpt lat="43.52247" lon="5.27842">
        <ele>149.62</ele>
        <time>2014-01-06T14:08:36Z</time>
      </trkpt>
      <trkpt lat="43.52245" lon="5.27849">
        <ele>149.62</ele>
        <time>2014-01-06T14:08:41Z</time>
      </trkpt>
      <trkpt lat="43.52242" lon="5.27854">
        <ele>149.14</ele>
        <time>2014-01-06T14:08:53Z</time>
      </trkpt>
      <trkpt lat="43.52242" lon="5.27853">
        <ele>149.14</ele>
        <time>2014-01-06T14:09:27Z</time>
      </trkpt>
      <trkpt lat="43.52243" lon="5.27856">
        <ele>149.62</ele>
        <time>2014-01-06T14:09:45Z</time>
      </trkpt>
      <trkpt lat="43.52243" lon="5.2786">
        <ele>149.62</ele>
        <time>2014-01-06T14:09:48Z</time>
      </trkpt>
      <trkpt lat="43.5224" lon="5.27878">
        <ele>150.1</ele>
        <time>2014-01-06T14:10:01Z</time>
      </trkpt>
      <trkpt lat="43.52238" lon="5.27887">
        <ele>152.99</ele>
        <time>2014-01-06T14:10:08Z</time>
      </trkpt>
      <trkpt lat="43.52238" lon="5.27893">
        <ele>152.51</ele>
        <time>2014-01-06T14:10:12Z</time>
      </trkpt>
      <trkpt lat="43.52236" lon="5.27906">
        <ele>152.99</ele>
        <time>2014-01-06T14:10:22Z</time>
      </trkpt>
      <trkpt lat="43.52236" lon="5.27911">
        <ele>152.51</ele>
        <time>2014-01-06T14:10:25Z</time>
      </trkpt>
      <trkpt lat="43.52235" lon="5.27913">
        <ele>153.95</ele>
        <time>2014-01-06T14:10:27Z</time>
      </trkpt>
      <trkpt lat="43.52233" lon="5.27919">
        <ele>152.99</ele>
        <time>2014-01-06T14:10:32Z</time>
      </trkpt>
      <trkpt lat="43.52231" lon="5.27925">
        <ele>153.95</ele>
        <time>2014-01-06T14:10:36Z</time>
      </trkpt>
      <trkpt lat="43.5223" lon="5.27931">
        <ele>155.39</ele>
        <time>2014-01-06T14:10:40Z</time>
      </trkpt>
      <trkpt lat="43.52225" lon="5.27946">
        <ele>155.39</ele>
        <time>2014-01-06T14:10:51Z</time>
      </trkpt>
      <trkpt lat="43.52223" lon="5.27953">
        <ele>155.87</ele>
        <time>2014-01-06T14:10:56Z</time>
      </trkpt>
      <trkpt lat="43.52222" lon="5.27958">
        <ele>155.39</ele>
        <time>2014-01-06T14:11:00Z</time>
      </trkpt>
      <trkpt lat="43.5222" lon="5.27966">
        <ele>156.35</ele>
        <time>2014-01-06T14:11:06Z</time>
      </trkpt>
      <trkpt lat="43.52216" lon="5.27985">
        <ele>156.35</ele>
        <time>2014-01-06T14:11:19Z</time>
      </trkpt>
      <trkpt lat="43.52214" lon="5.27991">
        <ele>156.83</ele>
        <time>2014-01-06T14:11:24Z</time>
      </trkpt>
      <trkpt lat="43.52213" lon="5.27994">
        <ele>157.79</ele>
        <time>2014-01-06T14:11:26Z</time>
      </trkpt>
      <trkpt lat="43.52208" lon="5.28008">
        <ele>159.24</ele>
        <time>2014-01-06T14:11:38Z</time>
      </trkpt>
      <trkpt lat="43.52205" lon="5.28009">
        <ele>157.79</ele>
        <time>2014-01-06T14:11:58Z</time>
      </trkpt>
      <trkpt lat="43.52203" lon="5.2802">
        <ele>156.35</ele>
        <time>2014-01-06T14:12:20Z</time>
      </trkpt>
      <trkpt lat="43.52199" lon="5.2803">
        <ele>158.27</ele>
        <time>2014-01-06T14:12:28Z</time>
      </trkpt>
      <trkpt lat="43.52192" lon="5.28046">
        <ele>157.79</ele>
        <time>2014-01-06T14:12:40Z</time>
      </trkpt>
      <trkpt lat="43.5219" lon="5.2805">
        <ele>156.35</ele>
        <time>2014-01-06T14:12:43Z</time>
      </trkpt>
      <trkpt lat="43.52188" lon="5.28054">
        <ele>157.79</ele>
        <time>2014-01-06T14:12:46Z</time>
      </trkpt>
      <trkpt lat="43.52185" lon="5.28058">
        <ele>156.35</ele>
        <time>2014-01-06T14:12:49Z</time>
      </trkpt>
      <trkpt lat="43.52177" lon="5.28075">
        <ele>155.39</ele>
        <time>2014-01-06T14:13:02Z</time>
      </trkpt>
      <trkpt lat="43.52175" lon="5.28079">
        <ele>156.83</ele>
        <time>2014-01-06T14:13:05Z</time>
      </trkpt>
      <trkpt lat="43.52169" lon="5.28091">
        <ele>155.39</ele>
        <time>2014-01-06T14:13:14Z</time>
      </trkpt>
      <trkpt lat="43.52165" lon="5.281">
        <ele>154.43</ele>
        <time>2014-01-06T14:13:21Z</time>
      </trkpt>
      <trkpt lat="43.52164" lon="5.28104">
        <ele>155.87</ele>
        <time>2014-01-06T14:13:24Z</time>
      </trkpt>
      <trkpt lat="43.52162" lon="5.28111">
        <ele>155.39</ele>
        <time>2014-01-06T14:13:29Z</time>
      </trkpt>
      <trkpt lat="43.52156" lon="5.28129">
        <ele>153.47</ele>
        <time>2014-01-06T14:13:42Z</time>
      </trkpt>
      <trkpt lat="43.52154" lon="5.28139">
        <ele>154.43</ele>
        <time>2014-01-06T14:13:49Z</time>
      </trkpt>
      <trkpt lat="43.52152" lon="5.28149">
        <ele>153.47</ele>
        <time>2014-01-06T14:14:02Z</time>
      </trkpt>
      <trkpt lat="43.52151" lon="5.28152">
        <ele>154.43</ele>
        <time>2014-01-06T14:14:28Z</time>
      </trkpt>
      <trkpt lat="43.52153" lon="5.28165">
        <ele>153.47</ele>
        <time>2014-01-06T14:14:41Z</time>
      </trkpt>
      <trkpt lat="43.52152" lon="5.28169">
        <ele>153.47</ele>
        <time>2014-01-06T14:15:19Z</time>
      </trkpt>
      <trkpt lat="43.52152" lon="5.28175">
        <ele>153.95</ele>
        <time>2014-01-06T14:15:23Z</time>
      </trkpt>
      <trkpt lat="43.52154" lon="5.28191">
        <ele>153.47</ele>
        <time>2014-01-06T14:15:35Z</time>
      </trkpt>
      <trkpt lat="43.52154" lon="5.28194">
        <ele>152.99</ele>
        <time>2014-01-06T14:15:37Z</time>
      </trkpt>
      <trkpt lat="43.52156" lon="5.28198">
        <ele>154.43</ele>
        <time>2014-01-06T14:15:40Z</time>
      </trkpt>
      <trkpt lat="43.52159" lon="5.28214">
        <ele>153.47</ele>
        <time>2014-01-06T14:15:52Z</time>
      </trkpt>
      <trkpt lat="43.52161" lon="5.28222">
        <ele>153.47</ele>
        <time>2014-01-06T14:15:57Z</time>
      </trkpt>
      <trkpt lat="43.52163" lon="5.2824">
        <ele>152.03</ele>
        <time>2014-01-06T14:16:09Z</time>
      </trkpt>
      <trkpt lat="43.52166" lon="5.28256">
        <ele>150.1</ele>
        <time>2014-01-06T14:16:20Z</time>
      </trkpt>
      <trkpt lat="43.52167" lon="5.28259">
        <ele>152.03</ele>
        <time>2014-01-06T14:16:23Z</time>
      </trkpt>
      <trkpt lat="43.52169" lon="5.28259">
        <ele>148.66</ele>
        <time>2014-01-06T14:16:26Z</time>
      </trkpt>
      <trkpt lat="43.5217" lon="5.2826">
        <ele>153.47</ele>
        <time>2014-01-06T14:16:27Z</time>
      </trkpt>
      <trkpt lat="43.52172" lon="5.28262">
        <ele>151.06</ele>
        <time>2014-01-06T14:16:30Z</time>
      </trkpt>
      <trkpt lat="43.52173" lon="5.28265">
        <ele>152.51</ele>
        <time>2014-01-06T14:16:34Z</time>
      </trkpt>
      <trkpt lat="43.52173" lon="5.28273">
        <ele>152.03</ele>
        <time>2014-01-06T14:16:47Z</time>
      </trkpt>
      <trkpt lat="43.52173" lon="5.28285">
        <ele>151.54</ele>
        <time>2014-01-06T14:16:55Z</time>
      </trkpt>
      <trkpt lat="43.52174" lon="5.28291">
        <ele>152.03</ele>
        <time>2014-01-06T14:17:00Z</time>
      </trkpt>
      <trkpt lat="43.52178" lon="5.28302">
        <ele>149.62</ele>
        <time>2014-01-06T14:17:08Z</time>
      </trkpt>
      <trkpt lat="43.52179" lon="5.28306">
        <ele>152.51</ele>
        <time>2014-01-06T14:17:11Z</time>
      </trkpt>
      <trkpt lat="43.52181" lon="5.28309">
        <ele>152.03</ele>
        <time>2014-01-06T14:17:14Z</time>
      </trkpt>
      <trkpt lat="43.52184" lon="5.28316">
        <ele>152.51</ele>
        <time>2014-01-06T14:17:20Z</time>
      </trkpt>
      <trkpt lat="43.52185" lon="5.28318">
        <ele>151.54</ele>
        <time>2014-01-06T14:17:22Z</time>
      </trkpt>
      <trkpt lat="43.52195" lon="5.28327">
        <ele>152.51</ele>
        <time>2014-01-06T14:17:36Z</time>
      </trkpt>
      <trkpt lat="43.52196" lon="5.28329">
        <ele>152.51</ele>
        <time>2014-01-06T14:18:02Z</time>
      </trkpt>
      <trkpt lat="43.52195" lon="5.28327">
        <ele>151.06</ele>
        <time>2014-01-06T14:18:17Z</time>
      </trkpt>
      <trkpt lat="43.52192" lon="5.28327">
        <ele>152.99</ele>
        <time>2014-01-06T14:18:20Z</time>
      </trkpt>
      <trkpt lat="43.52183" lon="5.28333">
        <ele>150.58</ele>
        <time>2014-01-06T14:18:32Z</time>
      </trkpt>
      <trkpt lat="43.52182" lon="5.28334">
        <ele>150.1</ele>
        <time>2014-01-06T14:18:33Z</time>
      </trkpt>
      <trkpt lat="43.52179" lon="5.28338">
        <ele>149.14</ele>
        <time>2014-01-06T14:18:40Z</time>
      </trkpt>
      <trkpt lat="43.52172" lon="5.28345">
        <ele>147.7</ele>
        <time>2014-01-06T14:18:51Z</time>
      </trkpt>
      <trkpt lat="43.5217" lon="5.2835">
        <ele>146.74</ele>
        <time>2014-01-06T14:19:04Z</time>
      </trkpt>
      <trkpt lat="43.52169" lon="5.28351">
        <ele>147.22</ele>
        <time>2014-01-06T14:19:12Z</time>
      </trkpt>
      <trkpt lat="43.52166" lon="5.28354">
        <ele>146.26</ele>
        <time>2014-01-06T14:19:16Z</time>
      </trkpt>
      <trkpt lat="43.5216" lon="5.28354">
        <ele>146.74</ele>
        <time>2014-01-06T14:19:28Z</time>
      </trkpt>
      <trkpt lat="43.52162" lon="5.28351">
        <ele>146.74</ele>
        <time>2014-01-06T14:19:47Z</time>
      </trkpt>
      <trkpt lat="43.52164" lon="5.28353">
        <ele>146.74</ele>
        <time>2014-01-06T14:20:05Z</time>
      </trkpt>
      <trkpt lat="43.52169" lon="5.28353">
        <ele>148.66</ele>
        <time>2014-01-06T14:20:18Z</time>
      </trkpt>
      <trkpt lat="43.5217" lon="5.28353">
        <ele>147.22</ele>
        <time>2014-01-06T14:20:20Z</time>
      </trkpt>
      <trkpt lat="43.52171" lon="5.28351">
        <ele>146.74</ele>
        <time>2014-01-06T14:20:37Z</time>
      </trkpt>
      <trkpt lat="43.52171" lon="5.28352">
        <ele>146.74</ele>
        <time>2014-01-06T14:21:02Z</time>
      </trkpt>
      <trkpt lat="43.52172" lon="5.28352">
        <ele>146.74</ele>
        <time>2014-01-06T14:21:23Z</time>
      </trkpt>
      <trkpt lat="43.52171" lon="5.28354">
        <ele>147.22</ele>
        <time>2014-01-06T14:21:42Z</time>
      </trkpt>
      <trkpt lat="43.52167" lon="5.28358">
        <ele>147.7</ele>
        <time>2014-01-06T14:22:06Z</time>
      </trkpt>
      <trkpt lat="43.52168" lon="5.28353">
        <ele>148.18</ele>
        <time>2014-01-06T14:22:18Z</time>
      </trkpt>
      <trkpt lat="43.5217" lon="5.28353">
        <ele>148.18</ele>
        <time>2014-01-06T14:22:38Z</time>
      </trkpt>
      <trkpt lat="43.5217" lon="5.28354">
        <ele>148.66</ele>
        <time>2014-01-06T14:22:54Z</time>
      </trkpt>
      <trkpt lat="43.5217" lon="5.28355">
        <ele>148.18</ele>
        <time>2014-01-06T14:23:17Z</time>
      </trkpt>
      <trkpt lat="43.52167" lon="5.28354">
        <ele>149.62</ele>
        <time>2014-01-06T14:23:34Z</time>
      </trkpt>
      <trkpt lat="43.52167" lon="5.28351">
        <ele>145.3</ele>
        <time>2014-01-06T14:23:37Z</time>
      </trkpt>
      <trkpt lat="43.5217" lon="5.28345">
        <ele>148.66</ele>
        <time>2014-01-06T14:23:42Z</time>
      </trkpt>
      <trkpt lat="43.52171" lon="5.28343">
        <ele>149.62</ele>
        <time>2014-01-06T14:23:44Z</time>
      </trkpt>
      <trkpt lat="43.52171" lon="5.28343">
        <ele>146.74</ele>
        <time>2014-01-06T14:23:47Z</time>
      </trkpt>
      <trkpt lat="43.52173" lon="5.28341">
        <ele>148.66</ele>
        <time>2014-01-06T14:23:49Z</time>
      </trkpt>
      <trkpt lat="43.52173" lon="5.28341">
        <ele>149.62</ele>
        <time>2014-01-06T14:23:50Z</time>
      </trkpt>
      <trkpt lat="43.52175" lon="5.2834">
        <ele>150.58</ele>
        <time>2014-01-06T14:23:52Z</time>
      </trkpt>
      <trkpt lat="43.52176" lon="5.2834">
        <ele>146.74</ele>
        <time>2014-01-06T14:23:53Z</time>
      </trkpt>
      <trkpt lat="43.52176" lon="5.28339">
        <ele>150.58</ele>
        <time>2014-01-06T14:23:54Z</time>
      </trkpt>
      <trkpt lat="43.52178" lon="5.28337">
        <ele>152.51</ele>
        <time>2014-01-06T14:23:56Z</time>
      </trkpt>
      <trkpt lat="43.52179" lon="5.28336">
        <ele>149.14</ele>
        <time>2014-01-06T14:23:58Z</time>
      </trkpt>
      <trkpt lat="43.52181" lon="5.28334">
        <ele>154.43</ele>
        <time>2014-01-06T14:24:00Z</time>
      </trkpt>
      <trkpt lat="43.52181" lon="5.28333">
        <ele>152.03</ele>
        <time>2014-01-06T14:24:01Z</time>
      </trkpt>
      <trkpt lat="43.52182" lon="5.28331">
        <ele>152.03</ele>
        <time>2014-01-06T14:24:03Z</time>
      </trkpt>
      <trkpt lat="43.52186" lon="5.28329">
        <ele>154.91</ele>
        <time>2014-01-06T14:24:08Z</time>
      </trkpt>
      <trkpt lat="43.52188" lon="5.28328">
        <ele>151.54</ele>
        <time>2014-01-06T14:24:11Z</time>
      </trkpt>
      <trkpt lat="43.52188" lon="5.28327">
        <ele>155.39</ele>
        <time>2014-01-06T14:24:12Z</time>
      </trkpt>
      <trkpt lat="43.52192" lon="5.28326">
        <ele>154.43</ele>
        <time>2014-01-06T14:24:17Z</time>
      </trkpt>
      <trkpt lat="43.52198" lon="5.28322">
        <ele>154.91</ele>
        <time>2014-01-06T14:24:23Z</time>
      </trkpt>
      <trkpt lat="43.52211" lon="5.2832">
        <ele>154.91</ele>
        <time>2014-01-06T14:24:36Z</time>
      </trkpt>
      <trkpt lat="43.52218" lon="5.28319">
        <ele>153.47</ele>
        <time>2014-01-06T14:24:43Z</time>
      </trkpt>
      <trkpt lat="43.52222" lon="5.28318">
        <ele>153.95</ele>
        <time>2014-01-06T14:24:48Z</time>
      </trkpt>
      <trkpt lat="43.52235" lon="5.28315">
        <ele>155.39</ele>
        <time>2014-01-06T14:25:01Z</time>
      </trkpt>
      <trkpt lat="43.52235" lon="5.28315">
        <ele>154.43</ele>
        <time>2014-01-06T14:25:03Z</time>
      </trkpt>
      <trkpt lat="43.52238" lon="5.28314">
        <ele>153.47</ele>
        <time>2014-01-06T14:25:06Z</time>
      </trkpt>
      <trkpt lat="43.52239" lon="5.28314">
        <ele>155.39</ele>
        <time>2014-01-06T14:25:07Z</time>
      </trkpt>
      <trkpt lat="43.52242" lon="5.28312">
        <ele>153.95</ele>
        <time>2014-01-06T14:25:10Z</time>
      </trkpt>
      <trkpt lat="43.52249" lon="5.28307">
        <ele>155.39</ele>
        <time>2014-01-06T14:25:18Z</time>
      </trkpt>
      <trkpt lat="43.52253" lon="5.28303">
        <ele>155.87</ele>
        <time>2014-01-06T14:25:23Z</time>
      </trkpt>
      <trkpt lat="43.52255" lon="5.283">
        <ele>153.95</ele>
        <time>2014-01-06T14:25:26Z</time>
      </trkpt>
      <trkpt lat="43.52263" lon="5.28285">
        <ele>155.39</ele>
        <time>2014-01-06T14:25:39Z</time>
      </trkpt>
      <trkpt lat="43.52268" lon="5.28275">
        <ele>153.95</ele>
        <time>2014-01-06T14:25:47Z</time>
      </trkpt>
      <trkpt lat="43.5227" lon="5.28269">
        <ele>155.39</ele>
        <time>2014-01-06T14:25:51Z</time>
      </trkpt>
      <trkpt lat="43.52274" lon="5.28259">
        <ele>153.95</ele>
        <time>2014-01-06T14:25:59Z</time>
      </trkpt>
      <trkpt lat="43.52279" lon="5.2825">
        <ele>154.91</ele>
        <time>2014-01-06T14:26:06Z</time>
      </trkpt>
      <trkpt lat="43.52282" lon="5.28247">
        <ele>153.95</ele>
        <time>2014-01-06T14:26:10Z</time>
      </trkpt>
      <trkpt lat="43.52284" lon="5.28243">
        <ele>155.39</ele>
        <time>2014-01-06T14:26:13Z</time>
      </trkpt>
      <trkpt lat="43.52288" lon="5.28238">
        <ele>155.39</ele>
        <time>2014-01-06T14:26:18Z</time>
      </trkpt>
      <trkpt lat="43.52299" lon="5.28227">
        <ele>154.91</ele>
        <time>2014-01-06T14:26:31Z</time>
      </trkpt>
      <trkpt lat="43.523" lon="5.28226">
        <ele>155.39</ele>
        <time>2014-01-06T14:26:32Z</time>
      </trkpt>
      <trkpt lat="43.52304" lon="5.28225">
        <ele>153.95</ele>
        <time>2014-01-06T14:26:40Z</time>
      </trkpt>
      <trkpt lat="43.52307" lon="5.28219">
        <ele>154.91</ele>
        <time>2014-01-06T14:26:45Z</time>
      </trkpt>
      <trkpt lat="43.5231" lon="5.28213">
        <ele>156.35</ele>
        <time>2014-01-06T14:26:50Z</time>
      </trkpt>
      <trkpt lat="43.52316" lon="5.28203">
        <ele>156.35</ele>
        <time>2014-01-06T14:26:58Z</time>
      </trkpt>
      <trkpt lat="43.52318" lon="5.28199">
        <ele>154.91</ele>
        <time>2014-01-06T14:27:01Z</time>
      </trkpt>
      <trkpt lat="43.5232" lon="5.28191">
        <ele>154.91</ele>
        <time>2014-01-06T14:27:07Z</time>
      </trkpt>
      <trkpt lat="43.52323" lon="5.2818">
        <ele>154.43</ele>
        <time>2014-01-06T14:27:14Z</time>
      </trkpt>
      <trkpt lat="43.52326" lon="5.28176">
        <ele>155.87</ele>
        <time>2014-01-06T14:27:17Z</time>
      </trkpt>
      <trkpt lat="43.52329" lon="5.28171">
        <ele>155.87</ele>
        <time>2014-01-06T14:27:22Z</time>
      </trkpt>
      <trkpt lat="43.52339" lon="5.28159">
        <ele>155.87</ele>
        <time>2014-01-06T14:27:34Z</time>
      </trkpt>
      <trkpt lat="43.52343" lon="5.28153">
        <ele>155.87</ele>
        <time>2014-01-06T14:27:39Z</time>
      </trkpt>
      <trkpt lat="43.52351" lon="5.28142">
        <ele>155.39</ele>
        <time>2014-01-06T14:27:49Z</time>
      </trkpt>
      <trkpt lat="43.52353" lon="5.28138">
        <ele>156.83</ele>
        <time>2014-01-06T14:27:52Z</time>
      </trkpt>
      <trkpt lat="43.52354" lon="5.28137">
        <ele>155.87</ele>
        <time>2014-01-06T14:27:53Z</time>
      </trkpt>
      <trkpt lat="43.52359" lon="5.2813">
        <ele>156.35</ele>
        <time>2014-01-06T14:27:59Z</time>
      </trkpt>
      <trkpt lat="43.52362" lon="5.2812">
        <ele>155.87</ele>
        <time>2014-01-06T14:28:07Z</time>
      </trkpt>
      <trkpt lat="43.52363" lon="5.28117">
        <ele>157.31</ele>
        <time>2014-01-06T14:28:09Z</time>
      </trkpt>
      <trkpt lat="43.52365" lon="5.28105">
        <ele>154.43</ele>
        <time>2014-01-06T14:28:17Z</time>
      </trkpt>
      <trkpt lat="43.52366" lon="5.281">
        <ele>156.83</ele>
        <time>2014-01-06T14:28:20Z</time>
      </trkpt>
      <trkpt lat="43.52367" lon="5.28096">
        <ele>155.39</ele>
        <time>2014-01-06T14:28:23Z</time>
      </trkpt>
      <trkpt lat="43.52375" lon="5.28082">
        <ele>155.87</ele>
        <time>2014-01-06T14:28:35Z</time>
      </trkpt>
      <trkpt lat="43.52386" lon="5.28074">
        <ele>153.47</ele>
        <time>2014-01-06T14:28:47Z</time>
      </trkpt>
      <trkpt lat="43.52391" lon="5.2807">
        <ele>153.95</ele>
        <time>2014-01-06T14:28:52Z</time>
      </trkpt>
      <trkpt lat="43.52398" lon="5.28065">
        <ele>153.47</ele>
        <time>2014-01-06T14:28:59Z</time>
      </trkpt>
      <trkpt lat="43.52402" lon="5.2806">
        <ele>154.43</ele>
        <time>2014-01-06T14:29:04Z</time>
      </trkpt>
      <trkpt lat="43.52403" lon="5.28059">
        <ele>152.99</ele>
        <time>2014-01-06T14:29:05Z</time>
      </trkpt>
      <trkpt lat="43.52413" lon="5.28048">
        <ele>153.47</ele>
        <time>2014-01-06T14:29:16Z</time>
      </trkpt>
      <trkpt lat="43.52415" lon="5.28046">
        <ele>152.51</ele>
        <time>2014-01-06T14:29:19Z</time>
      </trkpt>
      <trkpt lat="43.52425" lon="5.28035">
        <ele>152.03</ele>
        <time>2014-01-06T14:29:30Z</time>
      </trkpt>
      <trkpt lat="43.5243" lon="5.28027">
        <ele>152.03</ele>
        <time>2014-01-06T14:29:37Z</time>
      </trkpt>
      <trkpt lat="43.52436" lon="5.28021">
        <ele>150.1</ele>
        <time>2014-01-06T14:29:47Z</time>
      </trkpt>
      <trkpt lat="43.52447" lon="5.28009">
        <ele>150.1</ele>
        <time>2014-01-06T14:30:00Z</time>
      </trkpt>
      <trkpt lat="43.52453" lon="5.28004">
        <ele>150.1</ele>
        <time>2014-01-06T14:30:06Z</time>
      </trkpt>
      <trkpt lat="43.52456" lon="5.28001">
        <ele>151.54</ele>
        <time>2014-01-06T14:30:09Z</time>
      </trkpt>
      <trkpt lat="43.52461" lon="5.27994">
        <ele>151.06</ele>
        <time>2014-01-06T14:30:16Z</time>
      </trkpt>
      <trkpt lat="43.52462" lon="5.27992">
        <ele>150.58</ele>
        <time>2014-01-06T14:30:18Z</time>
      </trkpt>
      <trkpt lat="43.52465" lon="5.27988">
        <ele>151.06</ele>
        <time>2014-01-06T14:30:22Z</time>
      </trkpt>
      <trkpt lat="43.5247" lon="5.27982">
        <ele>151.06</ele>
        <time>2014-01-06T14:30:28Z</time>
      </trkpt>
      <trkpt lat="43.52479" lon="5.27969">
        <ele>150.1</ele>
        <time>2014-01-06T14:30:40Z</time>
      </trkpt>
      <trkpt lat="43.52484" lon="5.27962">
        <ele>151.06</ele>
        <time>2014-01-06T14:30:46Z</time>
      </trkpt>
      <trkpt lat="43.52485" lon="5.2796">
        <ele>149.14</ele>
        <time>2014-01-06T14:30:48Z</time>
      </trkpt>
      <trkpt lat="43.52493" lon="5.27947">
        <ele>149.62</ele>
        <time>2014-01-06T14:31:00Z</time>
      </trkpt>
      <trkpt lat="43.52494" lon="5.27945">
        <ele>148.18</ele>
        <time>2014-01-06T14:31:01Z</time>
      </trkpt>
      <trkpt lat="43.52497" lon="5.27939">
        <ele>148.66</ele>
        <time>2014-01-06T14:31:07Z</time>
      </trkpt>
      <trkpt lat="43.52505" lon="5.27927">
        <ele>149.14</ele>
        <time>2014-01-06T14:31:18Z</time>
      </trkpt>
      <trkpt lat="43.52508" lon="5.27922">
        <ele>151.54</ele>
        <time>2014-01-06T14:31:21Z</time>
      </trkpt>
      <trkpt lat="43.52512" lon="5.27913">
        <ele>150.1</ele>
        <time>2014-01-06T14:31:28Z</time>
      </trkpt>
      <trkpt lat="43.52516" lon="5.27909">
        <ele>151.06</ele>
        <time>2014-01-06T14:31:32Z</time>
      </trkpt>
      <trkpt lat="43.52524" lon="5.27897">
        <ele>150.58</ele>
        <time>2014-01-06T14:31:43Z</time>
      </trkpt>
      <trkpt lat="43.52525" lon="5.27894">
        <ele>149.62</ele>
        <time>2014-01-06T14:31:45Z</time>
      </trkpt>
      <trkpt lat="43.52532" lon="5.27884">
        <ele>151.54</ele>
        <time>2014-01-06T14:31:54Z</time>
      </trkpt>
      <trkpt lat="43.52533" lon="5.27881">
        <ele>149.62</ele>
        <time>2014-01-06T14:31:57Z</time>
      </trkpt>
      <trkpt lat="43.52534" lon="5.27876">
        <ele>151.54</ele>
        <time>2014-01-06T14:32:00Z</time>
      </trkpt>
      <trkpt lat="43.52535" lon="5.27874">
        <ele>150.1</ele>
        <time>2014-01-06T14:32:02Z</time>
      </trkpt>
      <trkpt lat="43.52539" lon="5.27858">
        <ele>151.54</ele>
        <time>2014-01-06T14:32:13Z</time>
      </trkpt>
      <trkpt lat="43.52541" lon="5.27851">
        <ele>151.06</ele>
        <time>2014-01-06T14:32:18Z</time>
      </trkpt>
      <trkpt lat="43.52547" lon="5.27836">
        <ele>152.03</ele>
        <time>2014-01-06T14:32:30Z</time>
      </trkpt>
      <trkpt lat="43.52549" lon="5.27831">
        <ele>152.99</ele>
        <time>2014-01-06T14:32:34Z</time>
      </trkpt>
      <trkpt lat="43.52552" lon="5.27827">
        <ele>153.95</ele>
        <time>2014-01-06T14:32:38Z</time>
      </trkpt>
      <trkpt lat="43.52554" lon="5.2782">
        <ele>152.99</ele>
        <time>2014-01-06T14:32:50Z</time>
      </trkpt>
      <trkpt lat="43.52554" lon="5.2782">
        <ele>153.47</ele>
        <time>2014-01-06T14:32:54Z</time>
      </trkpt>
      <trkpt lat="43.52555" lon="5.27817">
        <ele>155.39</ele>
        <time>2014-01-06T14:32:56Z</time>
      </trkpt>
      <trkpt lat="43.52557" lon="5.27813">
        <ele>152.03</ele>
        <time>2014-01-06T14:32:59Z</time>
      </trkpt>
      <trkpt lat="43.5256" lon="5.27804">
        <ele>154.43</ele>
        <time>2014-01-06T14:33:10Z</time>
      </trkpt>
      <trkpt lat="43.5256" lon="5.27801">
        <ele>152.51</ele>
        <time>2014-01-06T14:33:12Z</time>
      </trkpt>
      <trkpt lat="43.52561" lon="5.27791">
        <ele>154.43</ele>
        <time>2014-01-06T14:33:20Z</time>
      </trkpt>
      <trkpt lat="43.52559" lon="5.27777">
        <ele>153.95</ele>
        <time>2014-01-06T14:33:31Z</time>
      </trkpt>
      <trkpt lat="43.52558" lon="5.27773">
        <ele>153.47</ele>
        <time>2014-01-06T14:33:33Z</time>
      </trkpt>
      <trkpt lat="43.52556" lon="5.27763">
        <ele>153.95</ele>
        <time>2014-01-06T14:33:41Z</time>
      </trkpt>
      <trkpt lat="43.52555" lon="5.27756">
        <ele>153.47</ele>
        <time>2014-01-06T14:33:46Z</time>
      </trkpt>
      <trkpt lat="43.52551" lon="5.27737">
        <ele>152.03</ele>
        <time>2014-01-06T14:33:59Z</time>
      </trkpt>
      <trkpt lat="43.52551" lon="5.27736">
        <ele>151.54</ele>
        <time>2014-01-06T14:34:00Z</time>
      </trkpt>
      <trkpt lat="43.5255" lon="5.27731">
        <ele>152.99</ele>
        <time>2014-01-06T14:34:03Z</time>
      </trkpt>
      <trkpt lat="43.5255" lon="5.27729">
        <ele>151.54</ele>
        <time>2014-01-06T14:34:05Z</time>
      </trkpt>
      <trkpt lat="43.52546" lon="5.27716">
        <ele>152.99</ele>
        <time>2014-01-06T14:34:14Z</time>
      </trkpt>
      <trkpt lat="43.52544" lon="5.27713">
        <ele>151.54</ele>
        <time>2014-01-06T14:34:17Z</time>
      </trkpt>
      <trkpt lat="43.52539" lon="5.27703">
        <ele>152.99</ele>
        <time>2014-01-06T14:34:25Z</time>
      </trkpt>
      <trkpt lat="43.52532" lon="5.27689">
        <ele>151.54</ele>
        <time>2014-01-06T14:34:37Z</time>
      </trkpt>
      <trkpt lat="43.52529" lon="5.27679">
        <ele>151.54</ele>
        <time>2014-01-06T14:34:48Z</time>
      </trkpt>
      <trkpt lat="43.52528" lon="5.27678">
        <ele>152.03</ele>
        <time>2014-01-06T14:35:06Z</time>
      </trkpt>
      <trkpt lat="43.52526" lon="5.27677">
        <ele>152.03</ele>
        <time>2014-01-06T14:35:09Z</time>
      </trkpt>
      <trkpt lat="43.52524" lon="5.27676">
        <ele>150.58</ele>
        <time>2014-01-06T14:35:11Z</time>
      </trkpt>
      <trkpt lat="43.52521" lon="5.27671">
        <ele>152.03</ele>
        <time>2014-01-06T14:35:15Z</time>
      </trkpt>
      <trkpt lat="43.52514" lon="5.27664">
        <ele>150.1</ele>
        <time>2014-01-06T14:35:27Z</time>
      </trkpt>
      <trkpt lat="43.52505" lon="5.27654">
        <ele>150.1</ele>
        <time>2014-01-06T14:35:39Z</time>
      </trkpt>
      <trkpt lat="43.52503" lon="5.27653">
        <ele>150.1</ele>
        <time>2014-01-06T14:35:41Z</time>
      </trkpt>
      <trkpt lat="43.52492" lon="5.2764">
        <ele>149.14</ele>
        <time>2014-01-06T14:35:54Z</time>
      </trkpt>
      <trkpt lat="43.52482" lon="5.27626">
        <ele>150.1</ele>
        <time>2014-01-06T14:36:07Z</time>
      </trkpt>
      <trkpt lat="43.52477" lon="5.27619">
        <ele>149.62</ele>
        <time>2014-01-06T14:36:14Z</time>
      </trkpt>
      <trkpt lat="43.52474" lon="5.27617">
        <ele>148.18</ele>
        <time>2014-01-06T14:36:29Z</time>
      </trkpt>
      <trkpt lat="43.52475" lon="5.27615">
        <ele>148.66</ele>
        <time>2014-01-06T14:37:02Z</time>
      </trkpt>
      <trkpt lat="43.5247" lon="5.2761">
        <ele>148.66</ele>
        <time>2014-01-06T14:37:20Z</time>
      </trkpt>
      <trkpt lat="43.52463" lon="5.27605">
        <ele>148.66</ele>
        <time>2014-01-06T14:37:27Z</time>
      </trkpt>
      <trkpt lat="43.52462" lon="5.27605">
        <ele>148.66</ele>
        <time>2014-01-06T14:37:29Z</time>
      </trkpt>
      <trkpt lat="43.52449" lon="5.27601">
        <ele>147.7</ele>
        <time>2014-01-06T14:37:41Z</time>
      </trkpt>
      <trkpt lat="43.52442" lon="5.27598">
        <ele>147.22</ele>
        <time>2014-01-06T14:37:48Z</time>
      </trkpt>
      <trkpt lat="43.52434" lon="5.27595">
        <ele>148.18</ele>
        <time>2014-01-06T14:37:59Z</time>
      </trkpt>
      <trkpt lat="43.52431" lon="5.27595">
        <ele>146.74</ele>
        <time>2014-01-06T14:38:08Z</time>
      </trkpt>
      <trkpt lat="43.52416" lon="5.27596">
        <ele>147.7</ele>
        <time>2014-01-06T14:38:21Z</time>
      </trkpt>
      <trkpt lat="43.52407" lon="5.27596">
        <ele>148.18</ele>
        <time>2014-01-06T14:38:29Z</time>
      </trkpt>
      <trkpt lat="43.52406" lon="5.27597">
        <ele>147.7</ele>
        <time>2014-01-06T14:38:30Z</time>
      </trkpt>
      <trkpt lat="43.52401" lon="5.27597">
        <ele>148.66</ele>
        <time>2014-01-06T14:38:35Z</time>
      </trkpt>
      <trkpt lat="43.52394" lon="5.27598">
        <ele>147.22</ele>
        <time>2014-01-06T14:38:43Z</time>
      </trkpt>
      <trkpt lat="43.52386" lon="5.27601">
        <ele>148.66</ele>
        <time>2014-01-06T14:38:51Z</time>
      </trkpt>
      <trkpt lat="43.52374" lon="5.27608">
        <ele>148.18</ele>
        <time>2014-01-06T14:39:03Z</time>
      </trkpt>
      <trkpt lat="43.52371" lon="5.27611">
        <ele>146.74</ele>
        <time>2014-01-06T14:39:06Z</time>
      </trkpt>
      <trkpt lat="43.52359" lon="5.2762">
        <ele>147.7</ele>
        <time>2014-01-06T14:39:19Z</time>
      </trkpt>
      <trkpt lat="43.52347" lon="5.27629">
        <ele>148.18</ele>
        <time>2014-01-06T14:39:32Z</time>
      </trkpt>
      <trkpt lat="43.52341" lon="5.27633">
        <ele>148.18</ele>
        <time>2014-01-06T14:39:38Z</time>
      </trkpt>
      <trkpt lat="43.52328" lon="5.2764">
        <ele>146.74</ele>
        <time>2014-01-06T14:39:51Z</time>
      </trkpt>
      <trkpt lat="43.52325" lon="5.27643">
        <ele>148.18</ele>
        <time>2014-01-06T14:39:54Z</time>
      </trkpt>
      <trkpt lat="43.5232" lon="5.27645">
        <ele>149.14</ele>
        <time>2014-01-06T14:39:59Z</time>
      </trkpt>
      <trkpt lat="43.52316" lon="5.27644">
        <ele>146.74</ele>
        <time>2014-01-06T14:40:02Z</time>
      </trkpt>
      <trkpt lat="43.52311" lon="5.27641">
        <ele>146.26</ele>
        <time>2014-01-06T14:40:07Z</time>
      </trkpt>
      <trkpt lat="43.52303" lon="5.27618">
        <ele>142.89</ele>
        <time>2014-01-06T14:40:24Z</time>
      </trkpt>
      <trkpt lat="43.523" lon="5.27611">
        <ele>143.37</ele>
        <time>2014-01-06T14:40:30Z</time>
      </trkpt>
      <trkpt lat="43.52298" lon="5.27604">
        <ele>142.89</ele>
        <time>2014-01-06T14:40:35Z</time>
      </trkpt>
      <trkpt lat="43.52295" lon="5.27593">
        <ele>141.93</ele>
        <time>2014-01-06T14:40:43Z</time>
      </trkpt>
      <trkpt lat="43.52291" lon="5.27583">
        <ele>141.45</ele>
        <time>2014-01-06T14:40:50Z</time>
      </trkpt>
      <trkpt lat="43.52286" lon="5.27563">
        <ele>139.53</ele>
        <time>2014-01-06T14:41:04Z</time>
      </trkpt>
      <trkpt lat="43.52285" lon="5.27554">
        <ele>138.57</ele>
        <time>2014-01-06T14:41:11Z</time>
      </trkpt>
      <trkpt lat="43.52285" lon="5.27551">
        <ele>138.09</ele>
        <time>2014-01-06T14:41:13Z</time>
      </trkpt>
      <trkpt lat="43.52281" lon="5.27532">
        <ele>136.64</ele>
        <time>2014-01-06T14:41:26Z</time>
      </trkpt>
      <trkpt lat="43.52278" lon="5.27528">
        <ele>136.16</ele>
        <time>2014-01-06T14:41:30Z</time>
      </trkpt>
      <trkpt lat="43.52276" lon="5.27524">
        <ele>135.68</ele>
        <time>2014-01-06T14:41:33Z</time>
      </trkpt>
      <trkpt lat="43.52271" lon="5.27517">
        <ele>135.2</ele>
        <time>2014-01-06T14:41:40Z</time>
      </trkpt>
      <trkpt lat="43.52266" lon="5.27507">
        <ele>133.76</ele>
        <time>2014-01-06T14:41:49Z</time>
      </trkpt>
      <trkpt lat="43.52261" lon="5.2749">
        <ele>131.36</ele>
        <time>2014-01-06T14:42:02Z</time>
      </trkpt>
      <trkpt lat="43.52255" lon="5.27475">
        <ele>129.92</ele>
        <time>2014-01-06T14:42:14Z</time>
      </trkpt>
      <trkpt lat="43.52245" lon="5.2746">
        <ele>126.55</ele>
        <time>2014-01-06T14:42:28Z</time>
      </trkpt>
      <trkpt lat="43.52245" lon="5.27442">
        <ele>126.07</ele>
        <time>2014-01-06T14:42:41Z</time>
      </trkpt>
      <trkpt lat="43.52244" lon="5.27423">
        <ele>124.15</ele>
        <time>2014-01-06T14:42:53Z</time>
      </trkpt>
      <trkpt lat="43.52241" lon="5.27417">
        <ele>122.22</ele>
        <time>2014-01-06T14:43:06Z</time>
      </trkpt>
      <trkpt lat="43.52241" lon="5.27416">
        <ele>123.67</ele>
        <time>2014-01-06T14:43:36Z</time>
      </trkpt>
      <trkpt lat="43.52241" lon="5.27412">
        <ele>124.15</ele>
        <time>2014-01-06T14:43:41Z</time>
      </trkpt>
      <trkpt lat="43.52237" lon="5.27404">
        <ele>123.67</ele>
        <time>2014-01-06T14:43:47Z</time>
      </trkpt>
      <trkpt lat="43.52233" lon="5.27391">
        <ele>121.74</ele>
        <time>2014-01-06T14:43:57Z</time>
      </trkpt>
      <trkpt lat="43.52226" lon="5.27374">
        <ele>122.22</ele>
        <time>2014-01-06T14:44:10Z</time>
      </trkpt>
      <trkpt lat="43.52226" lon="5.27373">
        <ele>122.71</ele>
        <time>2014-01-06T14:44:11Z</time>
      </trkpt>
      <trkpt lat="43.52225" lon="5.27354">
        <ele>121.74</ele>
        <time>2014-01-06T14:44:23Z</time>
      </trkpt>
      <trkpt lat="43.52231" lon="5.27337">
        <ele>120.78</ele>
        <time>2014-01-06T14:44:37Z</time>
      </trkpt>
      <trkpt lat="43.52232" lon="5.27337">
        <ele>122.22</ele>
        <time>2014-01-06T14:44:38Z</time>
      </trkpt>
      <trkpt lat="43.52237" lon="5.27332">
        <ele>121.26</ele>
        <time>2014-01-06T14:44:52Z</time>
      </trkpt>
      <trkpt lat="43.5224" lon="5.27328">
        <ele>120.78</ele>
        <time>2014-01-06T14:44:57Z</time>
      </trkpt>
      <trkpt lat="43.52249" lon="5.27318">
        <ele>120.78</ele>
        <time>2014-01-06T14:45:06Z</time>
      </trkpt>
      <trkpt lat="43.52251" lon="5.27316">
        <ele>120.3</ele>
        <time>2014-01-06T14:45:08Z</time>
      </trkpt>
      <trkpt lat="43.52255" lon="5.2731">
        <ele>119.82</ele>
        <time>2014-01-06T14:45:13Z</time>
      </trkpt>
      <trkpt lat="43.52258" lon="5.27305">
        <ele>119.82</ele>
        <time>2014-01-06T14:45:18Z</time>
      </trkpt>
      <trkpt lat="43.52268" lon="5.2729">
        <ele>120.3</ele>
        <time>2014-01-06T14:45:33Z</time>
      </trkpt>
      <trkpt lat="43.52276" lon="5.27276">
        <ele>119.82</ele>
        <time>2014-01-06T14:45:47Z</time>
      </trkpt>
      <trkpt lat="43.5228" lon="5.27267">
        <ele>120.3</ele>
        <time>2014-01-06T14:45:53Z</time>
      </trkpt>
      <trkpt lat="43.52281" lon="5.27263">
        <ele>119.82</ele>
        <time>2014-01-06T14:45:55Z</time>
      </trkpt>
      <trkpt lat="43.52287" lon="5.27246">
        <ele>120.3</ele>
        <time>2014-01-06T14:46:06Z</time>
      </trkpt>
      <trkpt lat="43.5229" lon="5.27239">
        <ele>120.3</ele>
        <time>2014-01-06T14:46:12Z</time>
      </trkpt>
      <trkpt lat="43.52292" lon="5.27234">
        <ele>117.9</ele>
        <time>2014-01-06T14:46:15Z</time>
      </trkpt>
      <trkpt lat="43.52295" lon="5.2723">
        <ele>120.3</ele>
        <time>2014-01-06T14:46:18Z</time>
      </trkpt>
      <trkpt lat="43.523" lon="5.27218">
        <ele>120.3</ele>
        <time>2014-01-06T14:46:25Z</time>
      </trkpt>
      <trkpt lat="43.52305" lon="5.27208">
        <ele>118.86</ele>
        <time>2014-01-06T14:46:33Z</time>
      </trkpt>
      <trkpt lat="43.52307" lon="5.27203">
        <ele>120.3</ele>
        <time>2014-01-06T14:46:37Z</time>
      </trkpt>
      <trkpt lat="43.52309" lon="5.272">
        <ele>118.86</ele>
        <time>2014-01-06T14:46:39Z</time>
      </trkpt>
      <trkpt lat="43.52318" lon="5.27186">
        <ele>119.34</ele>
        <time>2014-01-06T14:46:52Z</time>
      </trkpt>
      <trkpt lat="43.52318" lon="5.27185">
        <ele>120.78</ele>
        <time>2014-01-06T14:46:54Z</time>
      </trkpt>
      <trkpt lat="43.52322" lon="5.27183">
        <ele>118.86</ele>
        <time>2014-01-06T14:47:09Z</time>
      </trkpt>
      <trkpt lat="43.5233" lon="5.27174">
        <ele>119.34</ele>
        <time>2014-01-06T14:47:20Z</time>
      </trkpt>
      <trkpt lat="43.52333" lon="5.2717">
        <ele>118.86</ele>
        <time>2014-01-06T14:47:24Z</time>
      </trkpt>
      <trkpt lat="43.52338" lon="5.27161">
        <ele>118.86</ele>
        <time>2014-01-06T14:47:33Z</time>
      </trkpt>
      <trkpt lat="43.52343" lon="5.27149">
        <ele>118.38</ele>
        <time>2014-01-06T14:47:43Z</time>
      </trkpt>
      <trkpt lat="43.52345" lon="5.27145">
        <ele>118.86</ele>
        <time>2014-01-06T14:47:46Z</time>
      </trkpt>
      <trkpt lat="43.52358" lon="5.27133">
        <ele>118.38</ele>
        <time>2014-01-06T14:47:59Z</time>
      </trkpt>
      <trkpt lat="43.52368" lon="5.27124">
        <ele>117.9</ele>
        <time>2014-01-06T14:48:11Z</time>
      </trkpt>
      <trkpt lat="43.52369" lon="5.27122">
        <ele>117.9</ele>
        <time>2014-01-06T14:48:13Z</time>
      </trkpt>
      <trkpt lat="43.52378" lon="5.27115">
        <ele>118.38</ele>
        <time>2014-01-06T14:48:23Z</time>
      </trkpt>
      <trkpt lat="43.52383" lon="5.27112">
        <ele>117.9</ele>
        <time>2014-01-06T14:48:28Z</time>
      </trkpt>
      <trkpt lat="43.52391" lon="5.27103">
        <ele>117.42</ele>
        <time>2014-01-06T14:48:39Z</time>
      </trkpt>
      <trkpt lat="43.52398" lon="5.27095">
        <ele>116.46</ele>
        <time>2014-01-06T14:48:48Z</time>
      </trkpt>
      <trkpt lat="43.52399" lon="5.27093">
        <ele>116.46</ele>
        <time>2014-01-06T14:48:50Z</time>
      </trkpt>
      <trkpt lat="43.52404" lon="5.27087">
        <ele>117.42</ele>
        <time>2014-01-06T14:48:55Z</time>
      </trkpt>
      <trkpt lat="43.52411" lon="5.27078">
        <ele>115.5</ele>
        <time>2014-01-06T14:49:04Z</time>
      </trkpt>
      <trkpt lat="43.52411" lon="5.27076">
        <ele>115.98</ele>
        <time>2014-01-06T14:49:05Z</time>
      </trkpt>
      <trkpt lat="43.52414" lon="5.27071">
        <ele>115.5</ele>
        <time>2014-01-06T14:49:09Z</time>
      </trkpt>
      <trkpt lat="43.52422" lon="5.2706">
        <ele>115.5</ele>
        <time>2014-01-06T14:49:20Z</time>
      </trkpt>
      <trkpt lat="43.52424" lon="5.27059">
        <ele>115.98</ele>
        <time>2014-01-06T14:49:22Z</time>
      </trkpt>
      <trkpt lat="43.52426" lon="5.27057">
        <ele>115.98</ele>
        <time>2014-01-06T14:49:25Z</time>
      </trkpt>
      <trkpt lat="43.52431" lon="5.27054">
        <ele>116.46</ele>
        <time>2014-01-06T14:49:31Z</time>
      </trkpt>
      <trkpt lat="43.52439" lon="5.27054">
        <ele>114.53</ele>
        <time>2014-01-06T14:49:44Z</time>
      </trkpt>
      <trkpt lat="43.52441" lon="5.27053">
        <ele>115.98</ele>
        <time>2014-01-06T14:49:50Z</time>
      </trkpt>
      <trkpt lat="43.52445" lon="5.27048">
        <ele>115.5</ele>
        <time>2014-01-06T14:49:55Z</time>
      </trkpt>
      <trkpt lat="43.52452" lon="5.27036">
        <ele>115.01</ele>
        <time>2014-01-06T14:50:06Z</time>
      </trkpt>
      <trkpt lat="43.52455" lon="5.27033">
        <ele>115.98</ele>
        <time>2014-01-06T14:50:09Z</time>
      </trkpt>
      <trkpt lat="43.52459" lon="5.27032">
        <ele>114.53</ele>
        <time>2014-01-06T14:50:12Z</time>
      </trkpt>
      <trkpt lat="43.52473" lon="5.27037">
        <ele>115.01</ele>
        <time>2014-01-06T14:50:25Z</time>
      </trkpt>
      <trkpt lat="43.52485" lon="5.27042">
        <ele>115.01</ele>
        <time>2014-01-06T14:50:35Z</time>
      </trkpt>
      <trkpt lat="43.52501" lon="5.27048">
        <ele>113.09</ele>
        <time>2014-01-06T14:50:50Z</time>
      </trkpt>
      <trkpt lat="43.52504" lon="5.27049">
        <ele>114.53</ele>
        <time>2014-01-06T14:50:53Z</time>
      </trkpt>
      <trkpt lat="43.52516" lon="5.27053">
        <ele>113.57</ele>
        <time>2014-01-06T14:51:05Z</time>
      </trkpt>
      <trkpt lat="43.52517" lon="5.27052">
        <ele>113.57</ele>
        <time>2014-01-06T14:51:06Z</time>
      </trkpt>
      <trkpt lat="43.52517" lon="5.27052">
        <ele>112.61</ele>
        <time>2014-01-06T14:51:09Z</time>
      </trkpt>
      <trkpt lat="43.5252" lon="5.27052">
        <ele>113.57</ele>
        <time>2014-01-06T14:51:13Z</time>
      </trkpt>
      <trkpt lat="43.52536" lon="5.27058">
        <ele>111.17</ele>
        <time>2014-01-06T14:51:28Z</time>
      </trkpt>
      <trkpt lat="43.52546" lon="5.27063">
        <ele>112.13</ele>
        <time>2014-01-06T14:51:37Z</time>
      </trkpt>
      <trkpt lat="43.52553" lon="5.27065">
        <ele>112.13</ele>
        <time>2014-01-06T14:51:44Z</time>
      </trkpt>
      <trkpt lat="43.52565" lon="5.27067">
        <ele>110.69</ele>
        <time>2014-01-06T14:51:55Z</time>
      </trkpt>
      <trkpt lat="43.52573" lon="5.27069">
        <ele>110.21</ele>
        <time>2014-01-06T14:52:02Z</time>
      </trkpt>
      <trkpt lat="43.52574" lon="5.2707">
        <ele>110.21</ele>
        <time>2014-01-06T14:52:04Z</time>
      </trkpt>
      <trkpt lat="43.52579" lon="5.27072">
        <ele>110.21</ele>
        <time>2014-01-06T14:52:08Z</time>
      </trkpt>
      <trkpt lat="43.52584" lon="5.27073">
        <ele>109.73</ele>
        <time>2014-01-06T14:52:12Z</time>
      </trkpt>
      <trkpt lat="43.52597" lon="5.27078">
        <ele>109.73</ele>
        <time>2014-01-06T14:52:26Z</time>
      </trkpt>
      <trkpt lat="43.52613" lon="5.27085">
        <ele>109.25</ele>
        <time>2014-01-06T14:52:41Z</time>
      </trkpt>
      <trkpt lat="43.52627" lon="5.27088">
        <ele>108.29</ele>
        <time>2014-01-06T14:52:54Z</time>
      </trkpt>
      <trkpt lat="43.5264" lon="5.27091">
        <ele>108.77</ele>
        <time>2014-01-06T14:53:07Z</time>
      </trkpt>
      <trkpt lat="43.52653" lon="5.27096">
        <ele>107.81</ele>
        <time>2014-01-06T14:53:19Z</time>
      </trkpt>
      <trkpt lat="43.52658" lon="5.27098">
        <ele>107.32</ele>
        <time>2014-01-06T14:53:24Z</time>
      </trkpt>
      <trkpt lat="43.52671" lon="5.27103">
        <ele>106.84</ele>
        <time>2014-01-06T14:53:36Z</time>
      </trkpt>
      <trkpt lat="43.5268" lon="5.27105">
        <ele>105.88</ele>
        <time>2014-01-06T14:53:44Z</time>
      </trkpt>
      <trkpt lat="43.52683" lon="5.27106">
        <ele>107.32</ele>
        <time>2014-01-06T14:53:47Z</time>
      </trkpt>
      <trkpt lat="43.52686" lon="5.27108">
        <ele>105.88</ele>
        <time>2014-01-06T14:53:49Z</time>
      </trkpt>
      <trkpt lat="43.52695" lon="5.27112">
        <ele>105.88</ele>
        <time>2014-01-06T14:53:58Z</time>
      </trkpt>
      <trkpt lat="43.5271" lon="5.27115">
        <ele>104.92</ele>
        <time>2014-01-06T14:54:12Z</time>
      </trkpt>
      <trkpt lat="43.52726" lon="5.2712">
        <ele>103</ele>
        <time>2014-01-06T14:54:25Z</time>
      </trkpt>
      <trkpt lat="43.52737" lon="5.27132">
        <ele>102.04</ele>
        <time>2014-01-06T14:54:38Z</time>
      </trkpt>
      <trkpt lat="43.52746" lon="5.27146">
        <ele>101.56</ele>
        <time>2014-01-06T14:54:50Z</time>
      </trkpt>
      <trkpt lat="43.52756" lon="5.27158">
        <ele>101.08</ele>
        <time>2014-01-06T14:55:02Z</time>
      </trkpt>
      <trkpt lat="43.52766" lon="5.27171">
        <ele>100.11</ele>
        <time>2014-01-06T14:55:15Z</time>
      </trkpt>
      <trkpt lat="43.52767" lon="5.27172">
        <ele>100.11</ele>
        <time>2014-01-06T14:55:16Z</time>
      </trkpt>
      <trkpt lat="43.52771" lon="5.27176">
        <ele>99.15</ele>
        <time>2014-01-06T14:55:20Z</time>
      </trkpt>
      <trkpt lat="43.52778" lon="5.27181">
        <ele>97.71</ele>
        <time>2014-01-06T14:55:28Z</time>
      </trkpt>
      <trkpt lat="43.52783" lon="5.27183">
        <ele>98.19</ele>
        <time>2014-01-06T14:55:36Z</time>
      </trkpt>
      <trkpt lat="43.52796" lon="5.27191">
        <ele>96.27</ele>
        <time>2014-01-06T14:55:48Z</time>
      </trkpt>
      <trkpt lat="43.52809" lon="5.27196">
        <ele>95.31</ele>
        <time>2014-01-06T14:56:00Z</time>
      </trkpt>
      <trkpt lat="43.52823" lon="5.27204">
        <ele>92.9</ele>
        <time>2014-01-06T14:56:14Z</time>
      </trkpt>
      <trkpt lat="43.52834" lon="5.27211">
        <ele>92.9</ele>
        <time>2014-01-06T14:56:27Z</time>
      </trkpt>
      <trkpt lat="43.52845" lon="5.27216">
        <ele>91.46</ele>
        <time>2014-01-06T14:56:35Z</time>
      </trkpt>
      <trkpt lat="43.52857" lon="5.27225">
        <ele>89.06</ele>
        <time>2014-01-06T14:56:47Z</time>
      </trkpt>
      <trkpt lat="43.52862" lon="5.27228">
        <ele>89.54</ele>
        <time>2014-01-06T14:56:52Z</time>
      </trkpt>
      <trkpt lat="43.52868" lon="5.27235">
        <ele>89.06</ele>
        <time>2014-01-06T14:56:58Z</time>
      </trkpt>
      <trkpt lat="43.52873" lon="5.27247">
        <ele>88.1</ele>
        <time>2014-01-06T14:57:08Z</time>
      </trkpt>
      <trkpt lat="43.52877" lon="5.27256">
        <ele>87.62</ele>
        <time>2014-01-06T14:57:15Z</time>
      </trkpt>
      <trkpt lat="43.52882" lon="5.27267">
        <ele>87.14</ele>
        <time>2014-01-06T14:57:24Z</time>
      </trkpt>
      <trkpt lat="43.52885" lon="5.27274">
        <ele>86.18</ele>
        <time>2014-01-06T14:57:29Z</time>
      </trkpt>
      <trkpt lat="43.52895" lon="5.2729">
        <ele>84.73</ele>
        <time>2014-01-06T14:57:42Z</time>
      </trkpt>
      <trkpt lat="43.52898" lon="5.27295">
        <ele>83.29</ele>
        <time>2014-01-06T14:57:45Z</time>
      </trkpt>
      <trkpt lat="43.52899" lon="5.27299">
        <ele>84.25</ele>
        <time>2014-01-06T14:57:48Z</time>
      </trkpt>
      <trkpt lat="43.52902" lon="5.27306">
        <ele>76.08</ele>
        <time>2014-01-06T14:57:57Z</time>
      </trkpt>
      <trkpt lat="43.52901" lon="5.27307">
        <ele>93.39</ele>
        <time>2014-01-06T14:57:58Z</time>
      </trkpt>
      <trkpt lat="43.52902" lon="5.27306">
        <ele>84.25</ele>
        <time>2014-01-06T14:57:59Z</time>
      </trkpt>
      <trkpt lat="43.52902" lon="5.27306">
        <ele>83.29</ele>
        <time>2014-01-06T14:58:01Z</time>
      </trkpt>
      <trkpt lat="43.52902" lon="5.27306">
        <ele>82.81</ele>
        <time>2014-01-06T14:58:04Z</time>
      </trkpt>
      <trkpt lat="43.52904" lon="5.27306">
        <ele>81.37</ele>
        <time>2014-01-06T14:58:06Z</time>
      </trkpt>
      <trkpt lat="43.5291" lon="5.27305">
        <ele>82.33</ele>
        <time>2014-01-06T14:58:12Z</time>
      </trkpt>
      <trkpt lat="43.5291" lon="5.27305">
        <ele>84.25</ele>
        <time>2014-01-06T14:58:13Z</time>
      </trkpt>
      <trkpt lat="43.52912" lon="5.27305">
        <ele>85.21</ele>
        <time>2014-01-06T14:58:15Z</time>
      </trkpt>
      <trkpt lat="43.52918" lon="5.27304">
        <ele>87.14</ele>
        <time>2014-01-06T14:58:20Z</time>
      </trkpt>
      <trkpt lat="43.5292" lon="5.27303">
        <ele>83.77</ele>
        <time>2014-01-06T14:58:22Z</time>
      </trkpt>
      <trkpt lat="43.5293" lon="5.27291">
        <ele>85.69</ele>
        <time>2014-01-06T14:58:35Z</time>
      </trkpt>
      <trkpt lat="43.52931" lon="5.27288">
        <ele>86.66</ele>
        <time>2014-01-06T14:58:37Z</time>
      </trkpt>
      <trkpt lat="43.5294" lon="5.27276">
        <ele>86.66</ele>
        <time>2014-01-06T14:58:49Z</time>
      </trkpt>
      <trkpt lat="43.52945" lon="5.27274">
        <ele>86.66</ele>
        <time>2014-01-06T14:58:53Z</time>
      </trkpt>
      <trkpt lat="43.52958" lon="5.27274">
        <ele>86.66</ele>
        <time>2014-01-06T14:59:04Z</time>
      </trkpt>
      <trkpt lat="43.5297" lon="5.27271">
        <ele>86.18</ele>
        <time>2014-01-06T14:59:15Z</time>
      </trkpt>
      <trkpt lat="43.52971" lon="5.27269">
        <ele>88.1</ele>
        <time>2014-01-06T14:59:17Z</time>
      </trkpt>
      <trkpt lat="43.52975" lon="5.27265">
        <ele>87.14</ele>
        <time>2014-01-06T14:59:21Z</time>
      </trkpt>
      <trkpt lat="43.52977" lon="5.27263">
        <ele>88.1</ele>
        <time>2014-01-06T14:59:23Z</time>
      </trkpt>
      <trkpt lat="43.52981" lon="5.27257">
        <ele>88.1</ele>
        <time>2014-01-06T14:59:28Z</time>
      </trkpt>
      <trkpt lat="43.52986" lon="5.27248">
        <ele>87.62</ele>
        <time>2014-01-06T14:59:37Z</time>
      </trkpt>
      <trkpt lat="43.52989" lon="5.27242">
        <ele>86.66</ele>
        <time>2014-01-06T14:59:42Z</time>
      </trkpt>
      <trkpt lat="43.52993" lon="5.27235">
        <ele>86.18</ele>
        <time>2014-01-06T14:59:47Z</time>
      </trkpt>
      <trkpt lat="43.52994" lon="5.27233">
        <ele>87.14</ele>
        <time>2014-01-06T14:59:49Z</time>
      </trkpt>
      <trkpt lat="43.53002" lon="5.27224">
        <ele>86.66</ele>
        <time>2014-01-06T14:59:59Z</time>
      </trkpt>
      <trkpt lat="43.53012" lon="5.27221">
        <ele>88.1</ele>
        <time>2014-01-06T15:00:08Z</time>
      </trkpt>
      <trkpt lat="43.53016" lon="5.2722">
        <ele>86.18</ele>
        <time>2014-01-06T15:00:11Z</time>
      </trkpt>
      <trkpt lat="43.53019" lon="5.2722">
        <ele>87.62</ele>
        <time>2014-01-06T15:00:14Z</time>
      </trkpt>
      <trkpt lat="43.53033" lon="5.27214">
        <ele>86.66</ele>
        <time>2014-01-06T15:00:27Z</time>
      </trkpt>
      <trkpt lat="43.53039" lon="5.27212">
        <ele>87.14</ele>
        <time>2014-01-06T15:00:32Z</time>
      </trkpt>
      <trkpt lat="43.53051" lon="5.27208">
        <ele>87.62</ele>
        <time>2014-01-06T15:00:44Z</time>
      </trkpt>
      <trkpt lat="43.53054" lon="5.27209">
        <ele>86.66</ele>
        <time>2014-01-06T15:01:02Z</time>
      </trkpt>
      <trkpt lat="43.53062" lon="5.27202">
        <ele>86.18</ele>
        <time>2014-01-06T15:01:15Z</time>
      </trkpt>
      <trkpt lat="43.53072" lon="5.27198">
        <ele>85.69</ele>
        <time>2014-01-06T15:01:27Z</time>
      </trkpt>
      <trkpt lat="43.53087" lon="5.27197">
        <ele>85.21</ele>
        <time>2014-01-06T15:01:40Z</time>
      </trkpt>
      <trkpt lat="43.53101" lon="5.27195">
        <ele>84.25</ele>
        <time>2014-01-06T15:01:53Z</time>
      </trkpt>
      <trkpt lat="43.53108" lon="5.2719">
        <ele>82.33</ele>
        <time>2014-01-06T15:02:06Z</time>
      </trkpt>
      <trkpt lat="43.53113" lon="5.27187">
        <ele>81.85</ele>
        <time>2014-01-06T15:02:36Z</time>
      </trkpt>
      <trkpt lat="43.53117" lon="5.27187">
        <ele>80.41</ele>
        <time>2014-01-06T15:02:40Z</time>
      </trkpt>
      <trkpt lat="43.53132" lon="5.27181">
        <ele>78.48</ele>
        <time>2014-01-06T15:02:55Z</time>
      </trkpt>
      <trkpt lat="43.53146" lon="5.27179">
        <ele>78</ele>
        <time>2014-01-06T15:03:09Z</time>
      </trkpt>
      <trkpt lat="43.53152" lon="5.27178">
        <ele>77.52</ele>
        <time>2014-01-06T15:03:15Z</time>
      </trkpt>
      <trkpt lat="43.53157" lon="5.2717">
        <ele>76.08</ele>
        <time>2014-01-06T15:03:23Z</time>
      </trkpt>
      <trkpt lat="43.53162" lon="5.27161">
        <ele>72.72</ele>
        <time>2014-01-06T15:03:30Z</time>
      </trkpt>
      <trkpt lat="43.53163" lon="5.27159">
        <ele>74.64</ele>
        <time>2014-01-06T15:03:32Z</time>
      </trkpt>
      <trkpt lat="43.53167" lon="5.27155">
        <ele>74.64</ele>
        <time>2014-01-06T15:03:36Z</time>
      </trkpt>
      <trkpt lat="43.5317" lon="5.27152">
        <ele>73.2</ele>
        <time>2014-01-06T15:03:39Z</time>
      </trkpt>
      <trkpt lat="43.53182" lon="5.27143">
        <ele>73.68</ele>
        <time>2014-01-06T15:03:53Z</time>
      </trkpt>
      <trkpt lat="43.5319" lon="5.2714">
        <ele>72.72</ele>
        <time>2014-01-06T15:04:05Z</time>
      </trkpt>
      <trkpt lat="43.53195" lon="5.27135">
        <ele>73.2</ele>
        <time>2014-01-06T15:04:14Z</time>
      </trkpt>
      <trkpt lat="43.53197" lon="5.27132">
        <ele>72.24</ele>
        <time>2014-01-06T15:04:17Z</time>
      </trkpt>
      <trkpt lat="43.53205" lon="5.2712">
        <ele>72.24</ele>
        <time>2014-01-06T15:04:29Z</time>
      </trkpt>
      <trkpt lat="43.53206" lon="5.2712">
        <ele>73.2</ele>
        <time>2014-01-06T15:04:31Z</time>
      </trkpt>
      <trkpt lat="43.53204" lon="5.27124">
        <ele>73.2</ele>
        <time>2014-01-06T15:04:47Z</time>
      </trkpt>
      <trkpt lat="43.53207" lon="5.27119">
        <ele>73.2</ele>
        <time>2014-01-06T15:04:52Z</time>
      </trkpt>
      <trkpt lat="43.53214" lon="5.27113">
        <ele>71.76</ele>
        <time>2014-01-06T15:04:59Z</time>
      </trkpt>
      <trkpt lat="43.53221" lon="5.27109">
        <ele>71.27</ele>
        <time>2014-01-06T15:05:08Z</time>
      </trkpt>
      <trkpt lat="43.53224" lon="5.27112">
        <ele>70.79</ele>
        <time>2014-01-06T15:05:13Z</time>
      </trkpt>
      <trkpt lat="43.53225" lon="5.27114">
        <ele>69.35</ele>
        <time>2014-01-06T15:05:16Z</time>
      </trkpt>
      <trkpt lat="43.53227" lon="5.27116">
        <ele>70.31</ele>
        <time>2014-01-06T15:05:23Z</time>
      </trkpt>
      <trkpt lat="43.53231" lon="5.27115">
        <ele>69.35</ele>
        <time>2014-01-06T15:05:52Z</time>
      </trkpt>
      <trkpt lat="43.53236" lon="5.27118">
        <ele>69.83</ele>
        <time>2014-01-06T15:05:59Z</time>
      </trkpt>
      <trkpt lat="43.53242" lon="5.27115">
        <ele>70.31</ele>
        <time>2014-01-06T15:06:07Z</time>
      </trkpt>
      <trkpt lat="43.53248" lon="5.27114">
        <ele>69.35</ele>
        <time>2014-01-06T15:06:17Z</time>
      </trkpt>
      <trkpt lat="43.53249" lon="5.27116">
        <ele>73.68</ele>
        <time>2014-01-06T15:06:19Z</time>
      </trkpt>
      <trkpt lat="43.53249" lon="5.27117">
        <ele>68.39</ele>
        <time>2014-01-06T15:06:20Z</time>
      </trkpt>
      <trkpt lat="43.5325" lon="5.27119">
        <ele>73.2</ele>
        <time>2014-01-06T15:06:22Z</time>
      </trkpt>
      <trkpt lat="43.53251" lon="5.27121">
        <ele>69.35</ele>
        <time>2014-01-06T15:06:24Z</time>
      </trkpt>
      <trkpt lat="43.53253" lon="5.27124">
        <ele>74.16</ele>
        <time>2014-01-06T15:06:26Z</time>
      </trkpt>
      <trkpt lat="43.53253" lon="5.27125">
        <ele>73.2</ele>
        <time>2014-01-06T15:06:27Z</time>
      </trkpt>
      <trkpt lat="43.53254" lon="5.27126">
        <ele>71.27</ele>
        <time>2014-01-06T15:06:28Z</time>
      </trkpt>
      <trkpt lat="43.53257" lon="5.27134">
        <ele>72.72</ele>
        <time>2014-01-06T15:06:42Z</time>
      </trkpt>
      <trkpt lat="43.53256" lon="5.27133">
        <ele>73.2</ele>
        <time>2014-01-06T15:07:14Z</time>
      </trkpt>
      <trkpt lat="43.53258" lon="5.27134">
        <ele>73.2</ele>
        <time>2014-01-06T15:07:19Z</time>
      </trkpt>
      <trkpt lat="43.53266" lon="5.27136">
        <ele>74.16</ele>
        <time>2014-01-06T15:07:30Z</time>
      </trkpt>
      <trkpt lat="43.53268" lon="5.27136">
        <ele>75.6</ele>
        <time>2014-01-06T15:07:52Z</time>
      </trkpt>
      <trkpt lat="43.53269" lon="5.27136">
        <ele>72.24</ele>
        <time>2014-01-06T15:07:53Z</time>
      </trkpt>
      <trkpt lat="43.5327" lon="5.27136">
        <ele>76.08</ele>
        <time>2014-01-06T15:07:55Z</time>
      </trkpt>
      <trkpt lat="43.5327" lon="5.27136">
        <ele>74.16</ele>
        <time>2014-01-06T15:07:56Z</time>
      </trkpt>
      <trkpt lat="43.53276" lon="5.2714">
        <ele>76.08</ele>
        <time>2014-01-06T15:08:09Z</time>
      </trkpt>
      <trkpt lat="43.53277" lon="5.27141">
        <ele>71.76</ele>
        <time>2014-01-06T15:08:22Z</time>
      </trkpt>
      <trkpt lat="43.53278" lon="5.27141">
        <ele>76.56</ele>
        <time>2014-01-06T15:08:23Z</time>
      </trkpt>
      <trkpt lat="43.53279" lon="5.27142">
        <ele>71.27</ele>
        <time>2014-01-06T15:08:25Z</time>
      </trkpt>
      <trkpt lat="43.53279" lon="5.27142">
        <ele>84.73</ele>
        <time>2014-01-06T15:08:26Z</time>
      </trkpt>
      <trkpt lat="43.5328" lon="5.27142">
        <ele>75.12</ele>
        <time>2014-01-06T15:08:27Z</time>
      </trkpt>
      <trkpt lat="43.5328" lon="5.27142">
        <ele>78.97</ele>
        <time>2014-01-06T15:08:28Z</time>
      </trkpt>
      <trkpt lat="43.53281" lon="5.27143">
        <ele>77.52</ele>
        <time>2014-01-06T15:08:33Z</time>
      </trkpt>
      <trkpt lat="43.53283" lon="5.27143">
        <ele>77.52</ele>
        <time>2014-01-06T15:08:55Z</time>
      </trkpt>
      <trkpt lat="43.53282" lon="5.27144">
        <ele>78</ele>
        <time>2014-01-06T15:09:16Z</time>
      </trkpt>
      <trkpt lat="43.53282" lon="5.27147">
        <ele>77.52</ele>
        <time>2014-01-06T15:09:43Z</time>
      </trkpt>
      <trkpt lat="43.53282" lon="5.27147">
        <ele>77.04</ele>
        <time>2014-01-06T15:10:15Z</time>
      </trkpt>
      <trkpt lat="43.53283" lon="5.27143">
        <ele>76.56</ele>
        <time>2014-01-06T15:10:37Z</time>
      </trkpt>
      <trkpt lat="43.53283" lon="5.27142">
        <ele>77.04</ele>
        <time>2014-01-06T15:11:13Z</time>
      </trkpt>
      <trkpt lat="43.53283" lon="5.27143">
        <ele>76.56</ele>
        <time>2014-01-06T15:12:02Z</time>
      </trkpt>
      <trkpt lat="43.53281" lon="5.27141">
        <ele>77.04</ele>
        <time>2014-01-06T15:12:40Z</time>
      </trkpt>
      <trkpt lat="43.53281" lon="5.27143">
        <ele>77.04</ele>
        <time>2014-01-06T15:13:30Z</time>
      </trkpt>
      <trkpt lat="43.53283" lon="5.27143">
        <ele>78</ele>
        <time>2014-01-06T15:14:18Z</time>
      </trkpt>
      <trkpt lat="43.53283" lon="5.27142">
        <ele>77.52</ele>
        <time>2014-01-06T15:15:03Z</time>
      </trkpt>
      <trkpt lat="43.53283" lon="5.27142">
        <ele>77.52</ele>
        <time>2014-01-06T15:15:38Z</time>
      </trkpt>
      <trkpt lat="43.53283" lon="5.27139">
        <ele>78</ele>
        <time>2014-01-06T15:16:21Z</time>
      </trkpt>
      <trkpt lat="43.53281" lon="5.27144">
        <ele>77.52</ele>
        <time>2014-01-06T15:17:00Z</time>
      </trkpt>
      <trkpt lat="43.53283" lon="5.27141">
        <ele>78</ele>
        <time>2014-01-06T15:17:39Z</time>
      </trkpt>
      <trkpt lat="43.53283" lon="5.27141">
        <ele>78</ele>
        <time>2014-01-06T15:18:11Z</time>
      </trkpt>
      <trkpt lat="43.53278" lon="5.27141">
        <ele>78</ele>
        <time>2014-01-06T15:18:41Z</time>
      </trkpt>
      <trkpt lat="43.53274" lon="5.27138">
        <ele>75.6</ele>
        <time>2014-01-06T15:18:54Z</time>
      </trkpt>
      <trkpt lat="43.53265" lon="5.27131">
        <ele>75.12</ele>
        <time>2014-01-06T15:19:09Z</time>
      </trkpt>
      <trkpt lat="43.53253" lon="5.27123">
        <ele>72.72</ele>
        <time>2014-01-06T15:19:25Z</time>
      </trkpt>
      <trkpt lat="43.53242" lon="5.27111">
        <ele>71.27</ele>
        <time>2014-01-06T15:19:41Z</time>
      </trkpt>
      <trkpt lat="43.5323" lon="5.27098">
        <ele>70.31</ele>
        <time>2014-01-06T15:19:56Z</time>
      </trkpt>
      <trkpt lat="43.53238" lon="5.27086">
        <ele>68.39</ele>
        <time>2014-01-06T15:20:09Z</time>
      </trkpt>
      <trkpt lat="43.5325" lon="5.27074">
        <ele>67.43</ele>
        <time>2014-01-06T15:20:21Z</time>
      </trkpt>
      <trkpt lat="43.53263" lon="5.2706">
        <ele>66.95</ele>
        <time>2014-01-06T15:20:37Z</time>
      </trkpt>
      <trkpt lat="43.53268" lon="5.27058">
        <ele>66.95</ele>
        <time>2014-01-06T15:20:42Z</time>
      </trkpt>
      <trkpt lat="43.53285" lon="5.27055">
        <ele>66.47</ele>
        <time>2014-01-06T15:20:59Z</time>
      </trkpt>
      <trkpt lat="43.53305" lon="5.27052">
        <ele>65.99</ele>
        <time>2014-01-06T15:21:14Z</time>
      </trkpt>
      <trkpt lat="43.53323" lon="5.27048">
        <ele>65.03</ele>
        <time>2014-01-06T15:21:31Z</time>
      </trkpt>
      <trkpt lat="43.53342" lon="5.27048">
        <ele>63.1</ele>
        <time>2014-01-06T15:21:47Z</time>
      </trkpt>
      <trkpt lat="43.53357" lon="5.27045">
        <ele>63.58</ele>
        <time>2014-01-06T15:22:02Z</time>
      </trkpt>
      <trkpt lat="43.53364" lon="5.27047">
        <ele>62.62</ele>
        <time>2014-01-06T15:22:15Z</time>
      </trkpt>
      <trkpt lat="43.53379" lon="5.27046">
        <ele>61.18</ele>
        <time>2014-01-06T15:22:31Z</time>
      </trkpt>
      <trkpt lat="43.53382" lon="5.27045">
        <ele>61.66</ele>
        <time>2014-01-06T15:22:48Z</time>
      </trkpt>
      <trkpt lat="43.53382" lon="5.27049">
        <ele>61.66</ele>
        <time>2014-01-06T15:23:05Z</time>
      </trkpt>
      <trkpt lat="43.53381" lon="5.2705">
        <ele>61.66</ele>
        <time>2014-01-06T15:23:20Z</time>
      </trkpt>
      <trkpt lat="43.53381" lon="5.27049">
        <ele>61.66</ele>
        <time>2014-01-06T15:23:36Z</time>
      </trkpt>
    </trkseg>
  </trk>
</gpx>